<?xml version="1.0" encoding="UTF-8" standalone="no" ?>
<gpx xmlns="http://www.topografix.com/GPX/1/1" xmlns:xsi="http://www.w3.org/2001/XMLSchema-instance" xsi:schemaLocation="http://www.topografix.com/GPX/1/1 http://www.topografix.com/GPX/1/1/gpx.xsd" version="1.1" creator="VisuGPX - https://www.visugpx.com">
  <metadata>
    <name>Fontaine les Dijon </name>
    <desc><![CDATA[Commémoration du centenaire de la guerre de 14]]></desc>
  </metadata>
  <trk>
    <name><![CDATA[Fontaine les Dijon]]></name>
    <desc><![CDATA[Odile, JP, JE, Josiane]]></desc>
    <trkseg>
      <trkpt lat="47.34548" lon="5.01665">
        <ele>325.39999389648</ele>
        <time>2014-11-11T07:33:15.000Z</time>
      </trkpt>
      <trkpt lat="47.34548" lon="5.01663">
        <ele>325.79998779297</ele>
        <time>2014-11-11T07:33:21.000Z</time>
      </trkpt>
      <trkpt lat="47.34553" lon="5.01661">
        <ele>326.60000610352</ele>
        <time>2014-11-11T07:33:26.000Z</time>
      </trkpt>
      <trkpt lat="47.34554" lon="5.0166">
        <ele>326.79998779297</ele>
        <time>2014-11-11T07:33:28.000Z</time>
      </trkpt>
      <trkpt lat="47.34556" lon="5.01658">
        <ele>327.39999389648</ele>
        <time>2014-11-11T07:33:35.000Z</time>
      </trkpt>
      <trkpt lat="47.3456" lon="5.01657">
        <ele>327.79998779297</ele>
        <time>2014-11-11T07:33:39.000Z</time>
      </trkpt>
      <trkpt lat="47.34563" lon="5.01652">
        <ele>328.79998779297</ele>
        <time>2014-11-11T07:33:43.000Z</time>
      </trkpt>
      <trkpt lat="47.34566" lon="5.01644">
        <ele>330.20001220703</ele>
        <time>2014-11-11T07:33:50.000Z</time>
      </trkpt>
      <trkpt lat="47.34572" lon="5.01641">
        <ele>331.20001220703</ele>
        <time>2014-11-11T07:33:55.000Z</time>
      </trkpt>
      <trkpt lat="47.34579" lon="5.0164">
        <ele>332.20001220703</ele>
        <time>2014-11-11T07:34:00.000Z</time>
      </trkpt>
      <trkpt lat="47.34584" lon="5.0164">
        <ele>332.79998779297</ele>
        <time>2014-11-11T07:34:07.000Z</time>
      </trkpt>
      <trkpt lat="47.34588" lon="5.01639">
        <ele>333</ele>
        <time>2014-11-11T07:34:12.000Z</time>
      </trkpt>
      <trkpt lat="47.34592" lon="5.01638">
        <ele>333.39999389648</ele>
        <time>2014-11-11T07:34:18.000Z</time>
      </trkpt>
      <trkpt lat="47.34597" lon="5.01638">
        <ele>333.39999389648</ele>
        <time>2014-11-11T07:34:24.000Z</time>
      </trkpt>
      <trkpt lat="47.34602" lon="5.01637">
        <ele>333.20001220703</ele>
        <time>2014-11-11T07:34:29.000Z</time>
      </trkpt>
      <trkpt lat="47.34608" lon="5.01636">
        <ele>333</ele>
        <time>2014-11-11T07:34:33.000Z</time>
      </trkpt>
      <trkpt lat="47.34615" lon="5.01636">
        <ele>333</ele>
        <time>2014-11-11T07:34:39.000Z</time>
      </trkpt>
      <trkpt lat="47.34616" lon="5.01636">
        <ele>333</ele>
        <time>2014-11-11T07:34:40.000Z</time>
      </trkpt>
      <trkpt lat="47.34624" lon="5.01637">
        <ele>332.60000610352</ele>
        <time>2014-11-11T07:34:47.000Z</time>
      </trkpt>
      <trkpt lat="47.34626" lon="5.01637">
        <ele>332.60000610352</ele>
        <time>2014-11-11T07:34:50.000Z</time>
      </trkpt>
      <trkpt lat="47.34631" lon="5.01641">
        <ele>332.39999389648</ele>
        <time>2014-11-11T07:34:55.000Z</time>
      </trkpt>
      <trkpt lat="47.34632" lon="5.01642">
        <ele>332.39999389648</ele>
        <time>2014-11-11T07:34:56.000Z</time>
      </trkpt>
      <trkpt lat="47.34632" lon="5.01643">
        <ele>332.39999389648</ele>
        <time>2014-11-11T07:34:59.000Z</time>
      </trkpt>
      <trkpt lat="47.34634" lon="5.01643">
        <ele>332.39999389648</ele>
        <time>2014-11-11T07:35:00.000Z</time>
      </trkpt>
      <trkpt lat="47.34636" lon="5.01643">
        <ele>332.20001220703</ele>
        <time>2014-11-11T07:35:03.000Z</time>
      </trkpt>
      <trkpt lat="47.34639" lon="5.01644">
        <ele>332.20001220703</ele>
        <time>2014-11-11T07:35:07.000Z</time>
      </trkpt>
      <trkpt lat="47.34646" lon="5.01646">
        <ele>332</ele>
        <time>2014-11-11T07:35:14.000Z</time>
      </trkpt>
      <trkpt lat="47.3465" lon="5.01649">
        <ele>331.79998779297</ele>
        <time>2014-11-11T07:35:20.000Z</time>
      </trkpt>
      <trkpt lat="47.34658" lon="5.01652">
        <ele>331.39999389648</ele>
        <time>2014-11-11T07:35:24.000Z</time>
      </trkpt>
      <trkpt lat="47.34661" lon="5.01654">
        <ele>331.39999389648</ele>
        <time>2014-11-11T07:35:27.000Z</time>
      </trkpt>
      <trkpt lat="47.34664" lon="5.01655">
        <ele>331.20001220703</ele>
        <time>2014-11-11T07:35:29.000Z</time>
      </trkpt>
      <trkpt lat="47.34674" lon="5.01661">
        <ele>330</ele>
        <time>2014-11-11T07:35:36.000Z</time>
      </trkpt>
      <trkpt lat="47.34675" lon="5.01662">
        <ele>330</ele>
        <time>2014-11-11T07:35:37.000Z</time>
      </trkpt>
      <trkpt lat="47.34677" lon="5.01665">
        <ele>329.60000610352</ele>
        <time>2014-11-11T07:35:39.000Z</time>
      </trkpt>
      <trkpt lat="47.34683" lon="5.01671">
        <ele>328.79998779297</ele>
        <time>2014-11-11T07:35:43.000Z</time>
      </trkpt>
      <trkpt lat="47.34685" lon="5.01673">
        <ele>328.60000610352</ele>
        <time>2014-11-11T07:35:45.000Z</time>
      </trkpt>
      <trkpt lat="47.34687" lon="5.01675">
        <ele>328.39999389648</ele>
        <time>2014-11-11T07:35:47.000Z</time>
      </trkpt>
      <trkpt lat="47.34695" lon="5.01683">
        <ele>327.39999389648</ele>
        <time>2014-11-11T07:35:53.000Z</time>
      </trkpt>
      <trkpt lat="47.347" lon="5.0169">
        <ele>326.60000610352</ele>
        <time>2014-11-11T07:35:57.000Z</time>
      </trkpt>
      <trkpt lat="47.34702" lon="5.01693">
        <ele>326.20001220703</ele>
        <time>2014-11-11T07:35:59.000Z</time>
      </trkpt>
      <trkpt lat="47.34708" lon="5.01699">
        <ele>325.39999389648</ele>
        <time>2014-11-11T07:36:04.000Z</time>
      </trkpt>
      <trkpt lat="47.3471" lon="5.017">
        <ele>325.39999389648</ele>
        <time>2014-11-11T07:36:05.000Z</time>
      </trkpt>
      <trkpt lat="47.34711" lon="5.01702">
        <ele>325.20001220703</ele>
        <time>2014-11-11T07:36:07.000Z</time>
      </trkpt>
      <trkpt lat="47.34712" lon="5.01702">
        <ele>325</ele>
        <time>2014-11-11T07:36:08.000Z</time>
      </trkpt>
      <trkpt lat="47.34718" lon="5.01706">
        <ele>324.20001220703</ele>
        <time>2014-11-11T07:36:12.000Z</time>
      </trkpt>
      <trkpt lat="47.34721" lon="5.01708">
        <ele>324</ele>
        <time>2014-11-11T07:36:15.000Z</time>
      </trkpt>
      <trkpt lat="47.34727" lon="5.01712">
        <ele>323</ele>
        <time>2014-11-11T07:36:21.000Z</time>
      </trkpt>
      <trkpt lat="47.34729" lon="5.01714">
        <ele>322.79998779297</ele>
        <time>2014-11-11T07:36:23.000Z</time>
      </trkpt>
      <trkpt lat="47.34736" lon="5.01718">
        <ele>321.79998779297</ele>
        <time>2014-11-11T07:36:27.000Z</time>
      </trkpt>
      <trkpt lat="47.34741" lon="5.0172">
        <ele>321.20001220703</ele>
        <time>2014-11-11T07:36:30.000Z</time>
      </trkpt>
      <trkpt lat="47.34748" lon="5.01725">
        <ele>320.20001220703</ele>
        <time>2014-11-11T07:36:35.000Z</time>
      </trkpt>
      <trkpt lat="47.34757" lon="5.01735">
        <ele>319.20001220703</ele>
        <time>2014-11-11T07:36:41.000Z</time>
      </trkpt>
      <trkpt lat="47.34762" lon="5.01739">
        <ele>318.79998779297</ele>
        <time>2014-11-11T07:36:44.000Z</time>
      </trkpt>
      <trkpt lat="47.34771" lon="5.01751">
        <ele>317.79998779297</ele>
        <time>2014-11-11T07:36:51.000Z</time>
      </trkpt>
      <trkpt lat="47.34773" lon="5.01753">
        <ele>317.60000610352</ele>
        <time>2014-11-11T07:36:52.000Z</time>
      </trkpt>
      <trkpt lat="47.34779" lon="5.01759">
        <ele>317</ele>
        <time>2014-11-11T07:36:56.000Z</time>
      </trkpt>
      <trkpt lat="47.34788" lon="5.0177">
        <ele>316</ele>
        <time>2014-11-11T07:37:02.000Z</time>
      </trkpt>
      <trkpt lat="47.34789" lon="5.01771">
        <ele>316</ele>
        <time>2014-11-11T07:37:03.000Z</time>
      </trkpt>
      <trkpt lat="47.3479" lon="5.01774">
        <ele>315.79998779297</ele>
        <time>2014-11-11T07:37:05.000Z</time>
      </trkpt>
      <trkpt lat="47.34788" lon="5.01775">
        <ele>316</ele>
        <time>2014-11-11T07:37:07.000Z</time>
      </trkpt>
      <trkpt lat="47.34801" lon="5.01788">
        <ele>314.60000610352</ele>
        <time>2014-11-11T07:37:14.000Z</time>
      </trkpt>
      <trkpt lat="47.34807" lon="5.01796">
        <ele>314</ele>
        <time>2014-11-11T07:37:20.000Z</time>
      </trkpt>
      <trkpt lat="47.34809" lon="5.01798">
        <ele>314</ele>
        <time>2014-11-11T07:37:21.000Z</time>
      </trkpt>
      <trkpt lat="47.34822" lon="5.01811">
        <ele>313</ele>
        <time>2014-11-11T07:37:29.000Z</time>
      </trkpt>
      <trkpt lat="47.34823" lon="5.01812">
        <ele>312.79998779297</ele>
        <time>2014-11-11T07:37:30.000Z</time>
      </trkpt>
      <trkpt lat="47.34834" lon="5.0182">
        <ele>312</ele>
        <time>2014-11-11T07:37:34.000Z</time>
      </trkpt>
      <trkpt lat="47.34846" lon="5.01838">
        <ele>310.39999389648</ele>
        <time>2014-11-11T07:37:42.000Z</time>
      </trkpt>
      <trkpt lat="47.34855" lon="5.01853">
        <ele>309.20001220703</ele>
        <time>2014-11-11T07:37:49.000Z</time>
      </trkpt>
      <trkpt lat="47.34859" lon="5.01861">
        <ele>308.60000610352</ele>
        <time>2014-11-11T07:37:53.000Z</time>
      </trkpt>
      <trkpt lat="47.34862" lon="5.01868">
        <ele>308.20001220703</ele>
        <time>2014-11-11T07:37:59.000Z</time>
      </trkpt>
      <trkpt lat="47.34865" lon="5.01876">
        <ele>307.79998779297</ele>
        <time>2014-11-11T07:38:02.000Z</time>
      </trkpt>
      <trkpt lat="47.34864" lon="5.01884">
        <ele>308</ele>
        <time>2014-11-11T07:38:05.000Z</time>
      </trkpt>
      <trkpt lat="47.3486" lon="5.01897">
        <ele>308.60000610352</ele>
        <time>2014-11-11T07:38:11.000Z</time>
      </trkpt>
      <trkpt lat="47.34854" lon="5.01911">
        <ele>309</ele>
        <time>2014-11-11T07:38:19.000Z</time>
      </trkpt>
      <trkpt lat="47.34856" lon="5.01924">
        <ele>308.60000610352</ele>
        <time>2014-11-11T07:38:24.000Z</time>
      </trkpt>
      <trkpt lat="47.34868" lon="5.01938">
        <ele>307.79998779297</ele>
        <time>2014-11-11T07:38:32.000Z</time>
      </trkpt>
      <trkpt lat="47.34869" lon="5.01939">
        <ele>307.60000610352</ele>
        <time>2014-11-11T07:38:34.000Z</time>
      </trkpt>
      <trkpt lat="47.34875" lon="5.01948">
        <ele>307.20001220703</ele>
        <time>2014-11-11T07:38:40.000Z</time>
      </trkpt>
      <trkpt lat="47.34883" lon="5.01961">
        <ele>306.39999389648</ele>
        <time>2014-11-11T07:38:45.000Z</time>
      </trkpt>
      <trkpt lat="47.34886" lon="5.01963">
        <ele>306.20001220703</ele>
        <time>2014-11-11T07:38:48.000Z</time>
      </trkpt>
      <trkpt lat="47.34893" lon="5.0197">
        <ele>305.60000610352</ele>
        <time>2014-11-11T07:38:54.000Z</time>
      </trkpt>
      <trkpt lat="47.34895" lon="5.01972">
        <ele>305.39999389648</ele>
        <time>2014-11-11T07:38:55.000Z</time>
      </trkpt>
      <trkpt lat="47.34902" lon="5.01984">
        <ele>304.60000610352</ele>
        <time>2014-11-11T07:39:02.000Z</time>
      </trkpt>
      <trkpt lat="47.34908" lon="5.01993">
        <ele>304</ele>
        <time>2014-11-11T07:39:08.000Z</time>
      </trkpt>
      <trkpt lat="47.34915" lon="5.02004">
        <ele>303.39999389648</ele>
        <time>2014-11-11T07:39:14.000Z</time>
      </trkpt>
      <trkpt lat="47.34923" lon="5.02016">
        <ele>302.39999389648</ele>
        <time>2014-11-11T07:39:22.000Z</time>
      </trkpt>
      <trkpt lat="47.34929" lon="5.02025">
        <ele>301.79998779297</ele>
        <time>2014-11-11T07:39:28.000Z</time>
      </trkpt>
      <trkpt lat="47.34939" lon="5.02037">
        <ele>300.60000610352</ele>
        <time>2014-11-11T07:39:35.000Z</time>
      </trkpt>
      <trkpt lat="47.34948" lon="5.02043">
        <ele>300</ele>
        <time>2014-11-11T07:39:42.000Z</time>
      </trkpt>
      <trkpt lat="47.34956" lon="5.02048">
        <ele>299.39999389648</ele>
        <time>2014-11-11T07:39:48.000Z</time>
      </trkpt>
      <trkpt lat="47.34964" lon="5.02056">
        <ele>299</ele>
        <time>2014-11-11T07:39:54.000Z</time>
      </trkpt>
      <trkpt lat="47.34971" lon="5.02061">
        <ele>298.60000610352</ele>
        <time>2014-11-11T07:39:59.000Z</time>
      </trkpt>
      <trkpt lat="47.34978" lon="5.02067">
        <ele>298.20001220703</ele>
        <time>2014-11-11T07:40:04.000Z</time>
      </trkpt>
      <trkpt lat="47.34986" lon="5.0207">
        <ele>297.60000610352</ele>
        <time>2014-11-11T07:40:10.000Z</time>
      </trkpt>
      <trkpt lat="47.34993" lon="5.02074">
        <ele>297.20001220703</ele>
        <time>2014-11-11T07:40:17.000Z</time>
      </trkpt>
      <trkpt lat="47.34998" lon="5.02076">
        <ele>297</ele>
        <time>2014-11-11T07:40:20.000Z</time>
      </trkpt>
      <trkpt lat="47.35006" lon="5.02079">
        <ele>296.39999389648</ele>
        <time>2014-11-11T07:40:26.000Z</time>
      </trkpt>
      <trkpt lat="47.35015" lon="5.02082">
        <ele>296</ele>
        <time>2014-11-11T07:40:32.000Z</time>
      </trkpt>
      <trkpt lat="47.35021" lon="5.02085">
        <ele>295.60000610352</ele>
        <time>2014-11-11T07:40:37.000Z</time>
      </trkpt>
      <trkpt lat="47.35029" lon="5.02089">
        <ele>295.20001220703</ele>
        <time>2014-11-11T07:40:40.000Z</time>
      </trkpt>
      <trkpt lat="47.35041" lon="5.02094">
        <ele>294.39999389648</ele>
        <time>2014-11-11T07:40:47.000Z</time>
      </trkpt>
      <trkpt lat="47.35053" lon="5.02097">
        <ele>293.60000610352</ele>
        <time>2014-11-11T07:40:53.000Z</time>
      </trkpt>
      <trkpt lat="47.3506" lon="5.021">
        <ele>293.20001220703</ele>
        <time>2014-11-11T07:40:57.000Z</time>
      </trkpt>
      <trkpt lat="47.3507" lon="5.02103">
        <ele>292.60000610352</ele>
        <time>2014-11-11T07:41:02.000Z</time>
      </trkpt>
      <trkpt lat="47.35082" lon="5.02105">
        <ele>292</ele>
        <time>2014-11-11T07:41:10.000Z</time>
      </trkpt>
      <trkpt lat="47.35086" lon="5.02105">
        <ele>291.60000610352</ele>
        <time>2014-11-11T07:41:13.000Z</time>
      </trkpt>
      <trkpt lat="47.35094" lon="5.02095">
        <ele>291.20001220703</ele>
        <time>2014-11-11T07:41:19.000Z</time>
      </trkpt>
      <trkpt lat="47.35096" lon="5.02093">
        <ele>291</ele>
        <time>2014-11-11T07:41:20.000Z</time>
      </trkpt>
      <trkpt lat="47.35105" lon="5.02084">
        <ele>290.60000610352</ele>
        <time>2014-11-11T07:41:26.000Z</time>
      </trkpt>
      <trkpt lat="47.35113" lon="5.02077">
        <ele>290</ele>
        <time>2014-11-11T07:41:32.000Z</time>
      </trkpt>
      <trkpt lat="47.35122" lon="5.02072">
        <ele>289.39999389648</ele>
        <time>2014-11-11T07:41:37.000Z</time>
      </trkpt>
      <trkpt lat="47.35123" lon="5.02071">
        <ele>289.20001220703</ele>
        <time>2014-11-11T07:41:39.000Z</time>
      </trkpt>
      <trkpt lat="47.35128" lon="5.02064">
        <ele>288.79998779297</ele>
        <time>2014-11-11T07:41:43.000Z</time>
      </trkpt>
      <trkpt lat="47.35135" lon="5.0206">
        <ele>288.20001220703</ele>
        <time>2014-11-11T07:41:47.000Z</time>
      </trkpt>
      <trkpt lat="47.35145" lon="5.02051">
        <ele>287.39999389648</ele>
        <time>2014-11-11T07:41:54.000Z</time>
      </trkpt>
      <trkpt lat="47.35146" lon="5.0205">
        <ele>287.39999389648</ele>
        <time>2014-11-11T07:41:55.000Z</time>
      </trkpt>
      <trkpt lat="47.3515" lon="5.02043">
        <ele>287</ele>
        <time>2014-11-11T07:42:00.000Z</time>
      </trkpt>
      <trkpt lat="47.35151" lon="5.02042">
        <ele>287</ele>
        <time>2014-11-11T07:42:01.000Z</time>
      </trkpt>
      <trkpt lat="47.35151" lon="5.02038">
        <ele>286.79998779297</ele>
        <time>2014-11-11T07:42:03.000Z</time>
      </trkpt>
      <trkpt lat="47.35154" lon="5.02029">
        <ele>286.39999389648</ele>
        <time>2014-11-11T07:42:07.000Z</time>
      </trkpt>
      <trkpt lat="47.35153" lon="5.02024">
        <ele>286.39999389648</ele>
        <time>2014-11-11T07:42:09.000Z</time>
      </trkpt>
      <trkpt lat="47.35153" lon="5.02021">
        <ele>286.39999389648</ele>
        <time>2014-11-11T07:42:11.000Z</time>
      </trkpt>
      <trkpt lat="47.35148" lon="5.02008">
        <ele>286.60000610352</ele>
        <time>2014-11-11T07:42:19.000Z</time>
      </trkpt>
      <trkpt lat="47.35141" lon="5.01989">
        <ele>286.79998779297</ele>
        <time>2014-11-11T07:42:28.000Z</time>
      </trkpt>
      <trkpt lat="47.35133" lon="5.01971">
        <ele>287.20001220703</ele>
        <time>2014-11-11T07:42:38.000Z</time>
      </trkpt>
      <trkpt lat="47.35125" lon="5.01953">
        <ele>287.20001220703</ele>
        <time>2014-11-11T07:42:48.000Z</time>
      </trkpt>
      <trkpt lat="47.35116" lon="5.01934">
        <ele>287.20001220703</ele>
        <time>2014-11-11T07:42:58.000Z</time>
      </trkpt>
      <trkpt lat="47.35105" lon="5.01912">
        <ele>287</ele>
        <time>2014-11-11T07:43:10.000Z</time>
      </trkpt>
      <trkpt lat="47.35097" lon="5.01892">
        <ele>286.79998779297</ele>
        <time>2014-11-11T07:43:21.000Z</time>
      </trkpt>
      <trkpt lat="47.35087" lon="5.01874">
        <ele>287.20001220703</ele>
        <time>2014-11-11T07:43:31.000Z</time>
      </trkpt>
      <trkpt lat="47.35074" lon="5.01854">
        <ele>287.79998779297</ele>
        <time>2014-11-11T07:43:43.000Z</time>
      </trkpt>
      <trkpt lat="47.35065" lon="5.01839">
        <ele>288.60000610352</ele>
        <time>2014-11-11T07:43:52.000Z</time>
      </trkpt>
      <trkpt lat="47.35056" lon="5.01822">
        <ele>289.20001220703</ele>
        <time>2014-11-11T07:44:02.000Z</time>
      </trkpt>
      <trkpt lat="47.35047" lon="5.01805">
        <ele>290</ele>
        <time>2014-11-11T07:44:11.000Z</time>
      </trkpt>
      <trkpt lat="47.3504" lon="5.01793">
        <ele>290.39999389648</ele>
        <time>2014-11-11T07:44:19.000Z</time>
      </trkpt>
      <trkpt lat="47.35032" lon="5.01782">
        <ele>291</ele>
        <time>2014-11-11T07:44:27.000Z</time>
      </trkpt>
      <trkpt lat="47.35025" lon="5.01771">
        <ele>291.60000610352</ele>
        <time>2014-11-11T07:44:34.000Z</time>
      </trkpt>
      <trkpt lat="47.35017" lon="5.01759">
        <ele>292.39999389648</ele>
        <time>2014-11-11T07:44:42.000Z</time>
      </trkpt>
      <trkpt lat="47.35012" lon="5.0175">
        <ele>292.79998779297</ele>
        <time>2014-11-11T07:44:48.000Z</time>
      </trkpt>
      <trkpt lat="47.35007" lon="5.01741">
        <ele>293.39999389648</ele>
        <time>2014-11-11T07:44:54.000Z</time>
      </trkpt>
      <trkpt lat="47.34996" lon="5.01723">
        <ele>294.39999389648</ele>
        <time>2014-11-11T07:45:04.000Z</time>
      </trkpt>
      <trkpt lat="47.34985" lon="5.01705">
        <ele>295.20001220703</ele>
        <time>2014-11-11T07:45:14.000Z</time>
      </trkpt>
      <trkpt lat="47.34973" lon="5.01686">
        <ele>295.60000610352</ele>
        <time>2014-11-11T07:45:24.000Z</time>
      </trkpt>
      <trkpt lat="47.34962" lon="5.01669">
        <ele>296</ele>
        <time>2014-11-11T07:45:34.000Z</time>
      </trkpt>
      <trkpt lat="47.34954" lon="5.01653">
        <ele>296.39999389648</ele>
        <time>2014-11-11T07:45:43.000Z</time>
      </trkpt>
      <trkpt lat="47.34942" lon="5.01633">
        <ele>296.79998779297</ele>
        <time>2014-11-11T07:45:54.000Z</time>
      </trkpt>
      <trkpt lat="47.34936" lon="5.0162">
        <ele>297.20001220703</ele>
        <time>2014-11-11T07:46:02.000Z</time>
      </trkpt>
      <trkpt lat="47.34928" lon="5.01604">
        <ele>297.79998779297</ele>
        <time>2014-11-11T07:46:11.000Z</time>
      </trkpt>
      <trkpt lat="47.34923" lon="5.01594">
        <ele>298.20001220703</ele>
        <time>2014-11-11T07:46:16.000Z</time>
      </trkpt>
      <trkpt lat="47.34916" lon="5.01581">
        <ele>298.60000610352</ele>
        <time>2014-11-11T07:46:23.000Z</time>
      </trkpt>
      <trkpt lat="47.34902" lon="5.01562">
        <ele>299.60000610352</ele>
        <time>2014-11-11T07:46:35.000Z</time>
      </trkpt>
      <trkpt lat="47.34892" lon="5.01548">
        <ele>300.39999389648</ele>
        <time>2014-11-11T07:46:44.000Z</time>
      </trkpt>
      <trkpt lat="47.34881" lon="5.01534">
        <ele>300.79998779297</ele>
        <time>2014-11-11T07:46:53.000Z</time>
      </trkpt>
      <trkpt lat="47.34874" lon="5.01523">
        <ele>301.20001220703</ele>
        <time>2014-11-11T07:47:00.000Z</time>
      </trkpt>
      <trkpt lat="47.34865" lon="5.0151">
        <ele>301.60000610352</ele>
        <time>2014-11-11T07:47:08.000Z</time>
      </trkpt>
      <trkpt lat="47.34856" lon="5.01496">
        <ele>302</ele>
        <time>2014-11-11T07:47:17.000Z</time>
      </trkpt>
      <trkpt lat="47.34844" lon="5.01482">
        <ele>302.39999389648</ele>
        <time>2014-11-11T07:47:26.000Z</time>
      </trkpt>
      <trkpt lat="47.34831" lon="5.01465">
        <ele>303</ele>
        <time>2014-11-11T07:47:37.000Z</time>
      </trkpt>
      <trkpt lat="47.34822" lon="5.01452">
        <ele>303.39999389648</ele>
        <time>2014-11-11T07:47:45.000Z</time>
      </trkpt>
      <trkpt lat="47.3481" lon="5.01436">
        <ele>304.20001220703</ele>
        <time>2014-11-11T07:47:55.000Z</time>
      </trkpt>
      <trkpt lat="47.34799" lon="5.01419">
        <ele>305</ele>
        <time>2014-11-11T07:48:05.000Z</time>
      </trkpt>
      <trkpt lat="47.34787" lon="5.014">
        <ele>305.79998779297</ele>
        <time>2014-11-11T07:48:16.000Z</time>
      </trkpt>
      <trkpt lat="47.34766" lon="5.0136">
        <ele>307.60000610352</ele>
        <time>2014-11-11T07:48:38.000Z</time>
      </trkpt>
      <trkpt lat="47.34759" lon="5.01343">
        <ele>308.20001220703</ele>
        <time>2014-11-11T07:48:47.000Z</time>
      </trkpt>
      <trkpt lat="47.34751" lon="5.01321">
        <ele>309</ele>
        <time>2014-11-11T07:48:59.000Z</time>
      </trkpt>
      <trkpt lat="47.34744" lon="5.01304">
        <ele>309.79998779297</ele>
        <time>2014-11-11T07:49:07.000Z</time>
      </trkpt>
      <trkpt lat="47.34736" lon="5.01284">
        <ele>310.20001220703</ele>
        <time>2014-11-11T07:49:17.000Z</time>
      </trkpt>
      <trkpt lat="47.34735" lon="5.0128">
        <ele>310.20001220703</ele>
        <time>2014-11-11T07:49:19.000Z</time>
      </trkpt>
      <trkpt lat="47.34742" lon="5.01262">
        <ele>310.39999389648</ele>
        <time>2014-11-11T07:49:28.000Z</time>
      </trkpt>
      <trkpt lat="47.34743" lon="5.0126">
        <ele>310.39999389648</ele>
        <time>2014-11-11T07:49:29.000Z</time>
      </trkpt>
      <trkpt lat="47.34752" lon="5.01245">
        <ele>310.60000610352</ele>
        <time>2014-11-11T07:49:37.000Z</time>
      </trkpt>
      <trkpt lat="47.34761" lon="5.01229">
        <ele>310.79998779297</ele>
        <time>2014-11-11T07:49:46.000Z</time>
      </trkpt>
      <trkpt lat="47.34769" lon="5.01211">
        <ele>311</ele>
        <time>2014-11-11T07:49:55.000Z</time>
      </trkpt>
      <trkpt lat="47.34781" lon="5.01188">
        <ele>310.79998779297</ele>
        <time>2014-11-11T07:50:07.000Z</time>
      </trkpt>
      <trkpt lat="47.34788" lon="5.01172">
        <ele>310.60000610352</ele>
        <time>2014-11-11T07:50:15.000Z</time>
      </trkpt>
      <trkpt lat="47.34796" lon="5.01152">
        <ele>310.79998779297</ele>
        <time>2014-11-11T07:50:25.000Z</time>
      </trkpt>
      <trkpt lat="47.34802" lon="5.01132">
        <ele>311.20001220703</ele>
        <time>2014-11-11T07:50:35.000Z</time>
      </trkpt>
      <trkpt lat="47.3481" lon="5.01114">
        <ele>311.39999389648</ele>
        <time>2014-11-11T07:50:44.000Z</time>
      </trkpt>
      <trkpt lat="47.3482" lon="5.01099">
        <ele>311.60000610352</ele>
        <time>2014-11-11T07:50:53.000Z</time>
      </trkpt>
      <trkpt lat="47.34828" lon="5.01083">
        <ele>311.79998779297</ele>
        <time>2014-11-11T07:51:02.000Z</time>
      </trkpt>
      <trkpt lat="47.34827" lon="5.01063">
        <ele>311.79998779297</ele>
        <time>2014-11-11T07:51:10.000Z</time>
      </trkpt>
      <trkpt lat="47.34828" lon="5.01047">
        <ele>311.79998779297</ele>
        <time>2014-11-11T07:51:17.000Z</time>
      </trkpt>
      <trkpt lat="47.34836" lon="5.01035">
        <ele>311.79998779297</ele>
        <time>2014-11-11T07:51:24.000Z</time>
      </trkpt>
      <trkpt lat="47.34845" lon="5.01019">
        <ele>311</ele>
        <time>2014-11-11T07:51:33.000Z</time>
      </trkpt>
      <trkpt lat="47.34855" lon="5.01002">
        <ele>310.39999389648</ele>
        <time>2014-11-11T07:51:43.000Z</time>
      </trkpt>
      <trkpt lat="47.34864" lon="5.00987">
        <ele>309.79998779297</ele>
        <time>2014-11-11T07:51:52.000Z</time>
      </trkpt>
      <trkpt lat="47.34874" lon="5.00967">
        <ele>309.39999389648</ele>
        <time>2014-11-11T07:52:03.000Z</time>
      </trkpt>
      <trkpt lat="47.34884" lon="5.00949">
        <ele>309</ele>
        <time>2014-11-11T07:52:13.000Z</time>
      </trkpt>
      <trkpt lat="47.34889" lon="5.00948">
        <ele>309</ele>
        <time>2014-11-11T07:52:17.000Z</time>
      </trkpt>
      <trkpt lat="47.34898" lon="5.00958">
        <ele>309.60000610352</ele>
        <time>2014-11-11T07:52:25.000Z</time>
      </trkpt>
      <trkpt lat="47.34907" lon="5.00972">
        <ele>310.39999389648</ele>
        <time>2014-11-11T07:52:33.000Z</time>
      </trkpt>
      <trkpt lat="47.34913" lon="5.00987">
        <ele>311</ele>
        <time>2014-11-11T07:52:41.000Z</time>
      </trkpt>
      <trkpt lat="47.34915" lon="5.00989">
        <ele>311</ele>
        <time>2014-11-11T07:52:44.000Z</time>
      </trkpt>
      <trkpt lat="47.34922" lon="5.0098">
        <ele>310.60000610352</ele>
        <time>2014-11-11T07:52:56.000Z</time>
      </trkpt>
      <trkpt lat="47.34927" lon="5.00965">
        <ele>310</ele>
        <time>2014-11-11T07:53:04.000Z</time>
      </trkpt>
      <trkpt lat="47.34931" lon="5.00961">
        <ele>309.79998779297</ele>
        <time>2014-11-11T07:53:07.000Z</time>
      </trkpt>
      <trkpt lat="47.34943" lon="5.00954">
        <ele>309.60000610352</ele>
        <time>2014-11-11T07:53:16.000Z</time>
      </trkpt>
      <trkpt lat="47.34962" lon="5.00949">
        <ele>309.20001220703</ele>
        <time>2014-11-11T07:53:28.000Z</time>
      </trkpt>
      <trkpt lat="47.34974" lon="5.00941">
        <ele>308.79998779297</ele>
        <time>2014-11-11T07:53:38.000Z</time>
      </trkpt>
      <trkpt lat="47.34975" lon="5.00938">
        <ele>308.79998779297</ele>
        <time>2014-11-11T07:53:39.000Z</time>
      </trkpt>
      <trkpt lat="47.34981" lon="5.00933">
        <ele>309.20001220703</ele>
        <time>2014-11-11T07:53:44.000Z</time>
      </trkpt>
      <trkpt lat="47.3499" lon="5.00924">
        <ele>309.79998779297</ele>
        <time>2014-11-11T07:53:52.000Z</time>
      </trkpt>
      <trkpt lat="47.34998" lon="5.00915">
        <ele>310.60000610352</ele>
        <time>2014-11-11T07:53:59.000Z</time>
      </trkpt>
      <trkpt lat="47.35005" lon="5.00907">
        <ele>311.20001220703</ele>
        <time>2014-11-11T07:54:05.000Z</time>
      </trkpt>
      <trkpt lat="47.35013" lon="5.00898">
        <ele>311.79998779297</ele>
        <time>2014-11-11T07:54:13.000Z</time>
      </trkpt>
      <trkpt lat="47.35021" lon="5.00893">
        <ele>312.20001220703</ele>
        <time>2014-11-11T07:54:19.000Z</time>
      </trkpt>
      <trkpt lat="47.35027" lon="5.00891">
        <ele>312.39999389648</ele>
        <time>2014-11-11T07:54:24.000Z</time>
      </trkpt>
      <trkpt lat="47.35034" lon="5.0089">
        <ele>312.79998779297</ele>
        <time>2014-11-11T07:54:29.000Z</time>
      </trkpt>
      <trkpt lat="47.35051" lon="5.00887">
        <ele>313.39999389648</ele>
        <time>2014-11-11T07:54:39.000Z</time>
      </trkpt>
      <trkpt lat="47.35068" lon="5.00887">
        <ele>314</ele>
        <time>2014-11-11T07:54:49.000Z</time>
      </trkpt>
      <trkpt lat="47.35079" lon="5.0089">
        <ele>314.39999389648</ele>
        <time>2014-11-11T07:54:58.000Z</time>
      </trkpt>
      <trkpt lat="47.35086" lon="5.00893">
        <ele>314.60000610352</ele>
        <time>2014-11-11T07:55:05.000Z</time>
      </trkpt>
      <trkpt lat="47.35094" lon="5.00895">
        <ele>315</ele>
        <time>2014-11-11T07:55:11.000Z</time>
      </trkpt>
      <trkpt lat="47.35105" lon="5.00893">
        <ele>315.39999389648</ele>
        <time>2014-11-11T07:55:18.000Z</time>
      </trkpt>
      <trkpt lat="47.35113" lon="5.00887">
        <ele>315.79998779297</ele>
        <time>2014-11-11T07:55:25.000Z</time>
      </trkpt>
      <trkpt lat="47.35122" lon="5.00878">
        <ele>316.39999389648</ele>
        <time>2014-11-11T07:55:32.000Z</time>
      </trkpt>
      <trkpt lat="47.35133" lon="5.00872">
        <ele>317</ele>
        <time>2014-11-11T07:55:39.000Z</time>
      </trkpt>
      <trkpt lat="47.35141" lon="5.00866">
        <ele>317.60000610352</ele>
        <time>2014-11-11T07:55:44.000Z</time>
      </trkpt>
      <trkpt lat="47.3515" lon="5.00858">
        <ele>318.20001220703</ele>
        <time>2014-11-11T07:55:50.000Z</time>
      </trkpt>
      <trkpt lat="47.35159" lon="5.00851">
        <ele>318.60000610352</ele>
        <time>2014-11-11T07:55:58.000Z</time>
      </trkpt>
      <trkpt lat="47.35169" lon="5.00843">
        <ele>319</ele>
        <time>2014-11-11T07:56:05.000Z</time>
      </trkpt>
      <trkpt lat="47.35179" lon="5.00838">
        <ele>319.20001220703</ele>
        <time>2014-11-11T07:56:13.000Z</time>
      </trkpt>
      <trkpt lat="47.35189" lon="5.00836">
        <ele>319.60000610352</ele>
        <time>2014-11-11T07:56:20.000Z</time>
      </trkpt>
      <trkpt lat="47.35197" lon="5.00837">
        <ele>319.60000610352</ele>
        <time>2014-11-11T07:56:25.000Z</time>
      </trkpt>
      <trkpt lat="47.35205" lon="5.0084">
        <ele>319.79998779297</ele>
        <time>2014-11-11T07:56:32.000Z</time>
      </trkpt>
      <trkpt lat="47.35208" lon="5.00842">
        <ele>319.79998779297</ele>
        <time>2014-11-11T07:56:35.000Z</time>
      </trkpt>
      <trkpt lat="47.35215" lon="5.0085">
        <ele>319.79998779297</ele>
        <time>2014-11-11T07:56:43.000Z</time>
      </trkpt>
      <trkpt lat="47.35221" lon="5.00853">
        <ele>320</ele>
        <time>2014-11-11T07:56:47.000Z</time>
      </trkpt>
      <trkpt lat="47.35238" lon="5.00846">
        <ele>321</ele>
        <time>2014-11-11T07:56:56.000Z</time>
      </trkpt>
      <trkpt lat="47.35248" lon="5.00838">
        <ele>321.79998779297</ele>
        <time>2014-11-11T07:57:04.000Z</time>
      </trkpt>
      <trkpt lat="47.35256" lon="5.00826">
        <ele>322.60000610352</ele>
        <time>2014-11-11T07:57:12.000Z</time>
      </trkpt>
      <trkpt lat="47.35257" lon="5.00825">
        <ele>322.60000610352</ele>
        <time>2014-11-11T07:57:13.000Z</time>
      </trkpt>
      <trkpt lat="47.35264" lon="5.00815">
        <ele>323.20001220703</ele>
        <time>2014-11-11T07:57:19.000Z</time>
      </trkpt>
      <trkpt lat="47.35282" lon="5.00786">
        <ele>324.60000610352</ele>
        <time>2014-11-11T07:57:36.000Z</time>
      </trkpt>
      <trkpt lat="47.35289" lon="5.00773">
        <ele>325</ele>
        <time>2014-11-11T07:57:44.000Z</time>
      </trkpt>
      <trkpt lat="47.35297" lon="5.00759">
        <ele>325.39999389648</ele>
        <time>2014-11-11T07:57:52.000Z</time>
      </trkpt>
      <trkpt lat="47.35305" lon="5.00745">
        <ele>325.60000610352</ele>
        <time>2014-11-11T07:58:00.000Z</time>
      </trkpt>
      <trkpt lat="47.35312" lon="5.00734">
        <ele>325.60000610352</ele>
        <time>2014-11-11T07:58:07.000Z</time>
      </trkpt>
      <trkpt lat="47.35321" lon="5.00719">
        <ele>325.79998779297</ele>
        <time>2014-11-11T07:58:16.000Z</time>
      </trkpt>
      <trkpt lat="47.35331" lon="5.00706">
        <ele>326</ele>
        <time>2014-11-11T07:58:25.000Z</time>
      </trkpt>
      <trkpt lat="47.35341" lon="5.00693">
        <ele>327</ele>
        <time>2014-11-11T07:58:34.000Z</time>
      </trkpt>
      <trkpt lat="47.35349" lon="5.00686">
        <ele>327.39999389648</ele>
        <time>2014-11-11T07:58:40.000Z</time>
      </trkpt>
      <trkpt lat="47.3536" lon="5.00674">
        <ele>328.20001220703</ele>
        <time>2014-11-11T07:58:49.000Z</time>
      </trkpt>
      <trkpt lat="47.35362" lon="5.00671">
        <ele>328.39999389648</ele>
        <time>2014-11-11T07:58:51.000Z</time>
      </trkpt>
      <trkpt lat="47.35368" lon="5.00663">
        <ele>329</ele>
        <time>2014-11-11T07:58:57.000Z</time>
      </trkpt>
      <trkpt lat="47.35371" lon="5.0066">
        <ele>329</ele>
        <time>2014-11-11T07:58:59.000Z</time>
      </trkpt>
      <trkpt lat="47.35378" lon="5.00652">
        <ele>329</ele>
        <time>2014-11-11T07:59:06.000Z</time>
      </trkpt>
      <trkpt lat="47.35377" lon="5.0065">
        <ele>329</ele>
        <time>2014-11-11T07:59:13.000Z</time>
      </trkpt>
      <trkpt lat="47.35379" lon="5.00647">
        <ele>329</ele>
        <time>2014-11-11T07:59:21.000Z</time>
      </trkpt>
      <trkpt lat="47.35384" lon="5.00642">
        <ele>329</ele>
        <time>2014-11-11T07:59:26.000Z</time>
      </trkpt>
      <trkpt lat="47.35387" lon="5.00641">
        <ele>329</ele>
        <time>2014-11-11T07:59:30.000Z</time>
      </trkpt>
      <trkpt lat="47.35401" lon="5.00636">
        <ele>329</ele>
        <time>2014-11-11T07:59:38.000Z</time>
      </trkpt>
      <trkpt lat="47.35401" lon="5.00634">
        <ele>329</ele>
        <time>2014-11-11T07:59:39.000Z</time>
      </trkpt>
      <trkpt lat="47.35407" lon="5.00631">
        <ele>329</ele>
        <time>2014-11-11T07:59:44.000Z</time>
      </trkpt>
      <trkpt lat="47.35413" lon="5.0063">
        <ele>329</ele>
        <time>2014-11-11T07:59:47.000Z</time>
      </trkpt>
      <trkpt lat="47.35424" lon="5.00623">
        <ele>329</ele>
        <time>2014-11-11T07:59:55.000Z</time>
      </trkpt>
      <trkpt lat="47.35426" lon="5.0062">
        <ele>329</ele>
        <time>2014-11-11T08:00:01.000Z</time>
      </trkpt>
      <trkpt lat="47.35424" lon="5.00611">
        <ele>329.20001220703</ele>
        <time>2014-11-11T08:00:23.000Z</time>
      </trkpt>
      <trkpt lat="47.35417" lon="5.006">
        <ele>329.39999389648</ele>
        <time>2014-11-11T08:00:30.000Z</time>
      </trkpt>
      <trkpt lat="47.3541" lon="5.00589">
        <ele>329.39999389648</ele>
        <time>2014-11-11T08:00:37.000Z</time>
      </trkpt>
      <trkpt lat="47.35403" lon="5.00579">
        <ele>329.60000610352</ele>
        <time>2014-11-11T08:00:44.000Z</time>
      </trkpt>
      <trkpt lat="47.35396" lon="5.00564">
        <ele>329.79998779297</ele>
        <time>2014-11-11T08:00:52.000Z</time>
      </trkpt>
      <trkpt lat="47.3539" lon="5.00551">
        <ele>329.79998779297</ele>
        <time>2014-11-11T08:00:59.000Z</time>
      </trkpt>
      <trkpt lat="47.35381" lon="5.00533">
        <ele>329.79998779297</ele>
        <time>2014-11-11T08:01:10.000Z</time>
      </trkpt>
      <trkpt lat="47.35371" lon="5.0052">
        <ele>329.79998779297</ele>
        <time>2014-11-11T08:01:18.000Z</time>
      </trkpt>
      <trkpt lat="47.35357" lon="5.005">
        <ele>329.60000610352</ele>
        <time>2014-11-11T08:01:29.000Z</time>
      </trkpt>
      <trkpt lat="47.35346" lon="5.00485">
        <ele>329.39999389648</ele>
        <time>2014-11-11T08:01:39.000Z</time>
      </trkpt>
      <trkpt lat="47.35339" lon="5.00476">
        <ele>329.20001220703</ele>
        <time>2014-11-11T08:01:46.000Z</time>
      </trkpt>
      <trkpt lat="47.35331" lon="5.00467">
        <ele>329.20001220703</ele>
        <time>2014-11-11T08:01:53.000Z</time>
      </trkpt>
      <trkpt lat="47.35319" lon="5.00453">
        <ele>329</ele>
        <time>2014-11-11T08:02:03.000Z</time>
      </trkpt>
      <trkpt lat="47.35308" lon="5.0044">
        <ele>329.20001220703</ele>
        <time>2014-11-11T08:02:12.000Z</time>
      </trkpt>
      <trkpt lat="47.35298" lon="5.00429">
        <ele>329.39999389648</ele>
        <time>2014-11-11T08:02:20.000Z</time>
      </trkpt>
      <trkpt lat="47.35291" lon="5.00421">
        <ele>329.39999389648</ele>
        <time>2014-11-11T08:02:26.000Z</time>
      </trkpt>
      <trkpt lat="47.35286" lon="5.00414">
        <ele>329.60000610352</ele>
        <time>2014-11-11T08:02:31.000Z</time>
      </trkpt>
      <trkpt lat="47.35292" lon="5.00411">
        <ele>329.39999389648</ele>
        <time>2014-11-11T08:02:37.000Z</time>
      </trkpt>
      <trkpt lat="47.35295" lon="5.00406">
        <ele>329.39999389648</ele>
        <time>2014-11-11T08:02:39.000Z</time>
      </trkpt>
      <trkpt lat="47.35302" lon="5.00395">
        <ele>329.39999389648</ele>
        <time>2014-11-11T08:02:46.000Z</time>
      </trkpt>
      <trkpt lat="47.35311" lon="5.00381">
        <ele>329.20001220703</ele>
        <time>2014-11-11T08:02:54.000Z</time>
      </trkpt>
      <trkpt lat="47.35321" lon="5.00362">
        <ele>329.39999389648</ele>
        <time>2014-11-11T08:03:04.000Z</time>
      </trkpt>
      <trkpt lat="47.3533" lon="5.00349">
        <ele>329.60000610352</ele>
        <time>2014-11-11T08:03:12.000Z</time>
      </trkpt>
      <trkpt lat="47.35336" lon="5.00334">
        <ele>330.20001220703</ele>
        <time>2014-11-11T08:03:20.000Z</time>
      </trkpt>
      <trkpt lat="47.35343" lon="5.00323">
        <ele>330.60000610352</ele>
        <time>2014-11-11T08:03:27.000Z</time>
      </trkpt>
      <trkpt lat="47.35352" lon="5.00306">
        <ele>331.39999389648</ele>
        <time>2014-11-11T08:03:37.000Z</time>
      </trkpt>
      <trkpt lat="47.35359" lon="5.00292">
        <ele>332</ele>
        <time>2014-11-11T08:03:45.000Z</time>
      </trkpt>
      <trkpt lat="47.35367" lon="5.00277">
        <ele>332.39999389648</ele>
        <time>2014-11-11T08:03:53.000Z</time>
      </trkpt>
      <trkpt lat="47.35375" lon="5.00262">
        <ele>333</ele>
        <time>2014-11-11T08:04:01.000Z</time>
      </trkpt>
      <trkpt lat="47.35376" lon="5.0026">
        <ele>333</ele>
        <time>2014-11-11T08:04:02.000Z</time>
      </trkpt>
      <trkpt lat="47.35377" lon="5.00252">
        <ele>333.20001220703</ele>
        <time>2014-11-11T08:04:06.000Z</time>
      </trkpt>
      <trkpt lat="47.35385" lon="5.0024">
        <ele>333.79998779297</ele>
        <time>2014-11-11T08:04:14.000Z</time>
      </trkpt>
      <trkpt lat="47.35393" lon="5.00226">
        <ele>334.60000610352</ele>
        <time>2014-11-11T08:04:22.000Z</time>
      </trkpt>
      <trkpt lat="47.35402" lon="5.00211">
        <ele>335.39999389648</ele>
        <time>2014-11-11T08:04:30.000Z</time>
      </trkpt>
      <trkpt lat="47.35409" lon="5.00196">
        <ele>336.20001220703</ele>
        <time>2014-11-11T08:04:38.000Z</time>
      </trkpt>
      <trkpt lat="47.35415" lon="5.00182">
        <ele>337</ele>
        <time>2014-11-11T08:04:46.000Z</time>
      </trkpt>
      <trkpt lat="47.35422" lon="5.0017">
        <ele>337.79998779297</ele>
        <time>2014-11-11T08:04:52.000Z</time>
      </trkpt>
      <trkpt lat="47.35428" lon="5.0016">
        <ele>338.39999389648</ele>
        <time>2014-11-11T08:04:58.000Z</time>
      </trkpt>
      <trkpt lat="47.35429" lon="5.00157">
        <ele>338.60000610352</ele>
        <time>2014-11-11T08:04:59.000Z</time>
      </trkpt>
      <trkpt lat="47.35435" lon="5.00146">
        <ele>339.20001220703</ele>
        <time>2014-11-11T08:05:06.000Z</time>
      </trkpt>
      <trkpt lat="47.35441" lon="5.00137">
        <ele>340.60000610352</ele>
        <time>2014-11-11T08:05:12.000Z</time>
      </trkpt>
      <trkpt lat="47.35442" lon="5.00134">
        <ele>340.79998779297</ele>
        <time>2014-11-11T08:05:13.000Z</time>
      </trkpt>
      <trkpt lat="47.35447" lon="5.00125">
        <ele>342.20001220703</ele>
        <time>2014-11-11T08:05:18.000Z</time>
      </trkpt>
      <trkpt lat="47.35449" lon="5.00123">
        <ele>342.60000610352</ele>
        <time>2014-11-11T08:05:19.000Z</time>
      </trkpt>
      <trkpt lat="47.35456" lon="5.00109">
        <ele>344.39999389648</ele>
        <time>2014-11-11T08:05:27.000Z</time>
      </trkpt>
      <trkpt lat="47.35457" lon="5.00108">
        <ele>344.60000610352</ele>
        <time>2014-11-11T08:05:28.000Z</time>
      </trkpt>
      <trkpt lat="47.35453" lon="5.00097">
        <ele>345.39999389648</ele>
        <time>2014-11-11T08:05:34.000Z</time>
      </trkpt>
      <trkpt lat="47.35453" lon="5.00097">
        <ele>345.39999389648</ele>
        <time>2014-11-11T08:05:35.000Z</time>
      </trkpt>
      <trkpt lat="47.35455" lon="5.00096">
        <ele>345.60000610352</ele>
        <time>2014-11-11T08:05:46.000Z</time>
      </trkpt>
      <trkpt lat="47.35454" lon="5.00086">
        <ele>346.60000610352</ele>
        <time>2014-11-11T08:06:12.000Z</time>
      </trkpt>
      <trkpt lat="47.35445" lon="5.00071">
        <ele>347.20001220703</ele>
        <time>2014-11-11T08:06:22.000Z</time>
      </trkpt>
      <trkpt lat="47.35436" lon="5.0006">
        <ele>347.39999389648</ele>
        <time>2014-11-11T08:06:30.000Z</time>
      </trkpt>
      <trkpt lat="47.35428" lon="5.0005">
        <ele>347.60000610352</ele>
        <time>2014-11-11T08:06:37.000Z</time>
      </trkpt>
      <trkpt lat="47.35427" lon="5.00049">
        <ele>347.79998779297</ele>
        <time>2014-11-11T08:06:38.000Z</time>
      </trkpt>
      <trkpt lat="47.35426" lon="5.00047">
        <ele>348</ele>
        <time>2014-11-11T08:06:40.000Z</time>
      </trkpt>
      <trkpt lat="47.35423" lon="5.00043">
        <ele>348</ele>
        <time>2014-11-11T08:06:43.000Z</time>
      </trkpt>
      <trkpt lat="47.35416" lon="5.00035">
        <ele>376.60000610352</ele>
        <time>2014-11-11T08:06:49.000Z</time>
      </trkpt>
      <trkpt lat="47.35408" lon="5.00028">
        <ele>364.20001220703</ele>
        <time>2014-11-11T08:06:56.000Z</time>
      </trkpt>
      <trkpt lat="47.35405" lon="5.00025">
        <ele>363.79998779297</ele>
        <time>2014-11-11T08:06:58.000Z</time>
      </trkpt>
      <trkpt lat="47.35399" lon="5.00022">
        <ele>363</ele>
        <time>2014-11-11T08:07:02.000Z</time>
      </trkpt>
      <trkpt lat="47.35385" lon="5.00015">
        <ele>361.39999389648</ele>
        <time>2014-11-11T08:07:12.000Z</time>
      </trkpt>
      <trkpt lat="47.35372" lon="5.00008">
        <ele>360.79998779297</ele>
        <time>2014-11-11T08:07:21.000Z</time>
      </trkpt>
      <trkpt lat="47.3536" lon="5.00002">
        <ele>360.20001220703</ele>
        <time>2014-11-11T08:07:29.000Z</time>
      </trkpt>
      <trkpt lat="47.35348" lon="4.99994">
        <ele>359.39999389648</ele>
        <time>2014-11-11T08:07:37.000Z</time>
      </trkpt>
      <trkpt lat="47.35339" lon="4.9999">
        <ele>359</ele>
        <time>2014-11-11T08:07:43.000Z</time>
      </trkpt>
      <trkpt lat="47.35327" lon="4.99978">
        <ele>353.39999389648</ele>
        <time>2014-11-11T08:07:52.000Z</time>
      </trkpt>
      <trkpt lat="47.35319" lon="4.99971">
        <ele>352.60000610352</ele>
        <time>2014-11-11T08:07:58.000Z</time>
      </trkpt>
      <trkpt lat="47.3531" lon="4.99956">
        <ele>352.39999389648</ele>
        <time>2014-11-11T08:08:07.000Z</time>
      </trkpt>
      <trkpt lat="47.35307" lon="4.99944">
        <ele>352</ele>
        <time>2014-11-11T08:08:13.000Z</time>
      </trkpt>
      <trkpt lat="47.35304" lon="4.9993">
        <ele>351.79998779297</ele>
        <time>2014-11-11T08:08:19.000Z</time>
      </trkpt>
      <trkpt lat="47.35299" lon="4.99911">
        <ele>351.79998779297</ele>
        <time>2014-11-11T08:08:28.000Z</time>
      </trkpt>
      <trkpt lat="47.35296" lon="4.999">
        <ele>351.79998779297</ele>
        <time>2014-11-11T08:08:33.000Z</time>
      </trkpt>
      <trkpt lat="47.353" lon="4.99898">
        <ele>352.60000610352</ele>
        <time>2014-11-11T08:08:37.000Z</time>
      </trkpt>
      <trkpt lat="47.35299" lon="4.99896">
        <ele>352.60000610352</ele>
        <time>2014-11-11T08:08:48.000Z</time>
      </trkpt>
      <trkpt lat="47.35298" lon="4.99896">
        <ele>352.39999389648</ele>
        <time>2014-11-11T08:08:53.000Z</time>
      </trkpt>
      <trkpt lat="47.35299" lon="4.99896">
        <ele>352.39999389648</ele>
        <time>2014-11-11T08:08:58.000Z</time>
      </trkpt>
      <trkpt lat="47.35299" lon="4.99898">
        <ele>352.20001220703</ele>
        <time>2014-11-11T08:09:35.000Z</time>
      </trkpt>
      <trkpt lat="47.35299" lon="4.99896">
        <ele>352.39999389648</ele>
        <time>2014-11-11T08:11:22.000Z</time>
      </trkpt>
      <trkpt lat="47.35301" lon="4.99894">
        <ele>353</ele>
        <time>2014-11-11T08:11:25.000Z</time>
      </trkpt>
      <trkpt lat="47.35304" lon="4.99891">
        <ele>353.79998779297</ele>
        <time>2014-11-11T08:11:29.000Z</time>
      </trkpt>
      <trkpt lat="47.35308" lon="4.99883">
        <ele>355</ele>
        <time>2014-11-11T08:11:36.000Z</time>
      </trkpt>
      <trkpt lat="47.35309" lon="4.99881">
        <ele>355.20001220703</ele>
        <time>2014-11-11T08:11:37.000Z</time>
      </trkpt>
      <trkpt lat="47.3531" lon="4.9988">
        <ele>355.39999389648</ele>
        <time>2014-11-11T08:11:38.000Z</time>
      </trkpt>
      <trkpt lat="47.35311" lon="4.99876">
        <ele>356</ele>
        <time>2014-11-11T08:11:42.000Z</time>
      </trkpt>
      <trkpt lat="47.35316" lon="4.99869">
        <ele>356.79998779297</ele>
        <time>2014-11-11T08:11:49.000Z</time>
      </trkpt>
      <trkpt lat="47.35316" lon="4.99868">
        <ele>357</ele>
        <time>2014-11-11T08:11:50.000Z</time>
      </trkpt>
      <trkpt lat="47.35317" lon="4.99867">
        <ele>357.20001220703</ele>
        <time>2014-11-11T08:11:52.000Z</time>
      </trkpt>
      <trkpt lat="47.3532" lon="4.99862">
        <ele>357.60000610352</ele>
        <time>2014-11-11T08:11:59.000Z</time>
      </trkpt>
      <trkpt lat="47.35322" lon="4.99857">
        <ele>358</ele>
        <time>2014-11-11T08:12:06.000Z</time>
      </trkpt>
      <trkpt lat="47.35326" lon="4.99855">
        <ele>358.39999389648</ele>
        <time>2014-11-11T08:12:10.000Z</time>
      </trkpt>
      <trkpt lat="47.35328" lon="4.99852">
        <ele>358.60000610352</ele>
        <time>2014-11-11T08:12:14.000Z</time>
      </trkpt>
      <trkpt lat="47.35331" lon="4.99848">
        <ele>359</ele>
        <time>2014-11-11T08:12:20.000Z</time>
      </trkpt>
      <trkpt lat="47.35334" lon="4.99843">
        <ele>359.60000610352</ele>
        <time>2014-11-11T08:12:25.000Z</time>
      </trkpt>
      <trkpt lat="47.35337" lon="4.99843">
        <ele>360.20001220703</ele>
        <time>2014-11-11T08:12:28.000Z</time>
      </trkpt>
      <trkpt lat="47.35343" lon="4.99841">
        <ele>361.79998779297</ele>
        <time>2014-11-11T08:12:35.000Z</time>
      </trkpt>
      <trkpt lat="47.35344" lon="4.9984">
        <ele>361.79998779297</ele>
        <time>2014-11-11T08:12:36.000Z</time>
      </trkpt>
      <trkpt lat="47.35347" lon="4.99834">
        <ele>362.39999389648</ele>
        <time>2014-11-11T08:12:41.000Z</time>
      </trkpt>
      <trkpt lat="47.35351" lon="4.99826">
        <ele>363</ele>
        <time>2014-11-11T08:12:47.000Z</time>
      </trkpt>
      <trkpt lat="47.35351" lon="4.99823">
        <ele>363</ele>
        <time>2014-11-11T08:12:49.000Z</time>
      </trkpt>
      <trkpt lat="47.35353" lon="4.9982">
        <ele>363.20001220703</ele>
        <time>2014-11-11T08:12:51.000Z</time>
      </trkpt>
      <trkpt lat="47.35353" lon="4.99816">
        <ele>363.20001220703</ele>
        <time>2014-11-11T08:12:53.000Z</time>
      </trkpt>
      <trkpt lat="47.35356" lon="4.9981">
        <ele>363.79998779297</ele>
        <time>2014-11-11T08:12:57.000Z</time>
      </trkpt>
      <trkpt lat="47.35359" lon="4.99807">
        <ele>364.60000610352</ele>
        <time>2014-11-11T08:13:04.000Z</time>
      </trkpt>
      <trkpt lat="47.3536" lon="4.99807">
        <ele>364.79998779297</ele>
        <time>2014-11-11T08:13:05.000Z</time>
      </trkpt>
      <trkpt lat="47.3536" lon="4.99807">
        <ele>365</ele>
        <time>2014-11-11T08:13:06.000Z</time>
      </trkpt>
      <trkpt lat="47.35366" lon="4.99813">
        <ele>366.60000610352</ele>
        <time>2014-11-11T08:13:14.000Z</time>
      </trkpt>
      <trkpt lat="47.35368" lon="4.99815">
        <ele>367.20001220703</ele>
        <time>2014-11-11T08:13:21.000Z</time>
      </trkpt>
      <trkpt lat="47.35373" lon="4.99816">
        <ele>368.20001220703</ele>
        <time>2014-11-11T08:13:28.000Z</time>
      </trkpt>
      <trkpt lat="47.35381" lon="4.9981">
        <ele>370.39999389648</ele>
        <time>2014-11-11T08:13:35.000Z</time>
      </trkpt>
      <trkpt lat="47.35383" lon="4.99807">
        <ele>370.79998779297</ele>
        <time>2014-11-11T08:13:38.000Z</time>
      </trkpt>
      <trkpt lat="47.35387" lon="4.99805">
        <ele>372</ele>
        <time>2014-11-11T08:13:44.000Z</time>
      </trkpt>
      <trkpt lat="47.35387" lon="4.99805">
        <ele>372</ele>
        <time>2014-11-11T08:13:45.000Z</time>
      </trkpt>
      <trkpt lat="47.3539" lon="4.99803">
        <ele>372.79998779297</ele>
        <time>2014-11-11T08:13:48.000Z</time>
      </trkpt>
      <trkpt lat="47.35394" lon="4.99804">
        <ele>373.79998779297</ele>
        <time>2014-11-11T08:13:51.000Z</time>
      </trkpt>
      <trkpt lat="47.35397" lon="4.99805">
        <ele>374.39999389648</ele>
        <time>2014-11-11T08:13:58.000Z</time>
      </trkpt>
      <trkpt lat="47.35402" lon="4.99803">
        <ele>376</ele>
        <time>2014-11-11T08:14:09.000Z</time>
      </trkpt>
      <trkpt lat="47.35412" lon="4.99793">
        <ele>378.39999389648</ele>
        <time>2014-11-11T08:14:18.000Z</time>
      </trkpt>
      <trkpt lat="47.35413" lon="4.99791">
        <ele>378.60000610352</ele>
        <time>2014-11-11T08:14:19.000Z</time>
      </trkpt>
      <trkpt lat="47.35424" lon="4.99779">
        <ele>378.39999389648</ele>
        <time>2014-11-11T08:14:30.000Z</time>
      </trkpt>
      <trkpt lat="47.35428" lon="4.99776">
        <ele>378.39999389648</ele>
        <time>2014-11-11T08:14:34.000Z</time>
      </trkpt>
      <trkpt lat="47.35433" lon="4.99774">
        <ele>378.39999389648</ele>
        <time>2014-11-11T08:14:39.000Z</time>
      </trkpt>
      <trkpt lat="47.35436" lon="4.99775">
        <ele>378.60000610352</ele>
        <time>2014-11-11T08:14:43.000Z</time>
      </trkpt>
      <trkpt lat="47.35438" lon="4.99774">
        <ele>378.60000610352</ele>
        <time>2014-11-11T08:14:45.000Z</time>
      </trkpt>
      <trkpt lat="47.35448" lon="4.99773">
        <ele>379</ele>
        <time>2014-11-11T08:14:52.000Z</time>
      </trkpt>
      <trkpt lat="47.35457" lon="4.99777">
        <ele>379.60000610352</ele>
        <time>2014-11-11T08:14:58.000Z</time>
      </trkpt>
      <trkpt lat="47.35459" lon="4.99778">
        <ele>379.60000610352</ele>
        <time>2014-11-11T08:14:59.000Z</time>
      </trkpt>
      <trkpt lat="47.35465" lon="4.9978">
        <ele>380</ele>
        <time>2014-11-11T08:15:05.000Z</time>
      </trkpt>
      <trkpt lat="47.35479" lon="4.99785">
        <ele>380.79998779297</ele>
        <time>2014-11-11T08:15:14.000Z</time>
      </trkpt>
      <trkpt lat="47.35485" lon="4.99788">
        <ele>381.20001220703</ele>
        <time>2014-11-11T08:15:19.000Z</time>
      </trkpt>
      <trkpt lat="47.35499" lon="4.99795">
        <ele>382</ele>
        <time>2014-11-11T08:15:28.000Z</time>
      </trkpt>
      <trkpt lat="47.35508" lon="4.998">
        <ele>382.39999389648</ele>
        <time>2014-11-11T08:15:34.000Z</time>
      </trkpt>
      <trkpt lat="47.35518" lon="4.99808">
        <ele>382.79998779297</ele>
        <time>2014-11-11T08:15:41.000Z</time>
      </trkpt>
      <trkpt lat="47.35519" lon="4.99809">
        <ele>382.79998779297</ele>
        <time>2014-11-11T08:15:42.000Z</time>
      </trkpt>
      <trkpt lat="47.35527" lon="4.99813">
        <ele>383</ele>
        <time>2014-11-11T08:15:48.000Z</time>
      </trkpt>
      <trkpt lat="47.35536" lon="4.99818">
        <ele>383.39999389648</ele>
        <time>2014-11-11T08:15:55.000Z</time>
      </trkpt>
      <trkpt lat="47.35546" lon="4.99824">
        <ele>383.79998779297</ele>
        <time>2014-11-11T08:16:01.000Z</time>
      </trkpt>
      <trkpt lat="47.35551" lon="4.99827">
        <ele>384</ele>
        <time>2014-11-11T08:16:06.000Z</time>
      </trkpt>
      <trkpt lat="47.35559" lon="4.9983">
        <ele>384.20001220703</ele>
        <time>2014-11-11T08:16:11.000Z</time>
      </trkpt>
      <trkpt lat="47.35564" lon="4.99834">
        <ele>384.39999389648</ele>
        <time>2014-11-11T08:16:15.000Z</time>
      </trkpt>
      <trkpt lat="47.35572" lon="4.99839">
        <ele>384.60000610352</ele>
        <time>2014-11-11T08:16:22.000Z</time>
      </trkpt>
      <trkpt lat="47.35574" lon="4.99842">
        <ele>384.79998779297</ele>
        <time>2014-11-11T08:16:25.000Z</time>
      </trkpt>
      <trkpt lat="47.35581" lon="4.99847">
        <ele>385</ele>
        <time>2014-11-11T08:16:29.000Z</time>
      </trkpt>
      <trkpt lat="47.35588" lon="4.99856">
        <ele>384.79998779297</ele>
        <time>2014-11-11T08:16:35.000Z</time>
      </trkpt>
      <trkpt lat="47.35592" lon="4.99865">
        <ele>384.60000610352</ele>
        <time>2014-11-11T08:16:41.000Z</time>
      </trkpt>
      <trkpt lat="47.35594" lon="4.9987">
        <ele>384.60000610352</ele>
        <time>2014-11-11T08:16:44.000Z</time>
      </trkpt>
      <trkpt lat="47.356" lon="4.99876">
        <ele>384.20001220703</ele>
        <time>2014-11-11T08:16:50.000Z</time>
      </trkpt>
      <trkpt lat="47.35602" lon="4.99878">
        <ele>384.20001220703</ele>
        <time>2014-11-11T08:16:52.000Z</time>
      </trkpt>
      <trkpt lat="47.35605" lon="4.9988">
        <ele>384</ele>
        <time>2014-11-11T08:16:54.000Z</time>
      </trkpt>
      <trkpt lat="47.3561" lon="4.99884">
        <ele>383.60000610352</ele>
        <time>2014-11-11T08:16:59.000Z</time>
      </trkpt>
      <trkpt lat="47.35614" lon="4.99885">
        <ele>383.39999389648</ele>
        <time>2014-11-11T08:17:03.000Z</time>
      </trkpt>
      <trkpt lat="47.35615" lon="4.99886">
        <ele>383.39999389648</ele>
        <time>2014-11-11T08:17:05.000Z</time>
      </trkpt>
      <trkpt lat="47.35624" lon="4.99892">
        <ele>382.79998779297</ele>
        <time>2014-11-11T08:17:12.000Z</time>
      </trkpt>
      <trkpt lat="47.35633" lon="4.99895">
        <ele>382.39999389648</ele>
        <time>2014-11-11T08:17:19.000Z</time>
      </trkpt>
      <trkpt lat="47.35645" lon="4.99892">
        <ele>382</ele>
        <time>2014-11-11T08:17:27.000Z</time>
      </trkpt>
      <trkpt lat="47.35646" lon="4.99891">
        <ele>382</ele>
        <time>2014-11-11T08:17:28.000Z</time>
      </trkpt>
      <trkpt lat="47.35652" lon="4.99889">
        <ele>382</ele>
        <time>2014-11-11T08:17:32.000Z</time>
      </trkpt>
      <trkpt lat="47.35653" lon="4.99889">
        <ele>381.79998779297</ele>
        <time>2014-11-11T08:17:33.000Z</time>
      </trkpt>
      <trkpt lat="47.35656" lon="4.9989">
        <ele>381.79998779297</ele>
        <time>2014-11-11T08:17:35.000Z</time>
      </trkpt>
      <trkpt lat="47.35662" lon="4.99889">
        <ele>381.60000610352</ele>
        <time>2014-11-11T08:17:41.000Z</time>
      </trkpt>
      <trkpt lat="47.35665" lon="4.99894">
        <ele>381.20001220703</ele>
        <time>2014-11-11T08:17:44.000Z</time>
      </trkpt>
      <trkpt lat="47.35669" lon="4.99899">
        <ele>380</ele>
        <time>2014-11-11T08:17:47.000Z</time>
      </trkpt>
      <trkpt lat="47.35673" lon="4.99912">
        <ele>378.39999389648</ele>
        <time>2014-11-11T08:17:53.000Z</time>
      </trkpt>
      <trkpt lat="47.35673" lon="4.99914">
        <ele>378.39999389648</ele>
        <time>2014-11-11T08:17:54.000Z</time>
      </trkpt>
      <trkpt lat="47.35675" lon="4.99923">
        <ele>377.60000610352</ele>
        <time>2014-11-11T08:17:59.000Z</time>
      </trkpt>
      <trkpt lat="47.35675" lon="4.99925">
        <ele>377.39999389648</ele>
        <time>2014-11-11T08:18:00.000Z</time>
      </trkpt>
      <trkpt lat="47.35677" lon="4.99929">
        <ele>376.79998779297</ele>
        <time>2014-11-11T08:18:03.000Z</time>
      </trkpt>
      <trkpt lat="47.35677" lon="4.99939">
        <ele>376.60000610352</ele>
        <time>2014-11-11T08:18:08.000Z</time>
      </trkpt>
      <trkpt lat="47.35677" lon="4.99943">
        <ele>376.39999389648</ele>
        <time>2014-11-11T08:18:10.000Z</time>
      </trkpt>
      <trkpt lat="47.35676" lon="4.9995">
        <ele>376.39999389648</ele>
        <time>2014-11-11T08:18:14.000Z</time>
      </trkpt>
      <trkpt lat="47.35674" lon="4.99967">
        <ele>377.60000610352</ele>
        <time>2014-11-11T08:18:22.000Z</time>
      </trkpt>
      <trkpt lat="47.35671" lon="4.99982">
        <ele>375.79998779297</ele>
        <time>2014-11-11T08:18:29.000Z</time>
      </trkpt>
      <trkpt lat="47.35668" lon="4.99996">
        <ele>374</ele>
        <time>2014-11-11T08:18:36.000Z</time>
      </trkpt>
      <trkpt lat="47.35665" lon="5.00013">
        <ele>371.79998779297</ele>
        <time>2014-11-11T08:18:44.000Z</time>
      </trkpt>
      <trkpt lat="47.35659" lon="5.00031">
        <ele>382</ele>
        <time>2014-11-11T08:18:53.000Z</time>
      </trkpt>
      <trkpt lat="47.35656" lon="5.0004">
        <ele>382</ele>
        <time>2014-11-11T08:18:58.000Z</time>
      </trkpt>
      <trkpt lat="47.35654" lon="5.00047">
        <ele>361.60000610352</ele>
        <time>2014-11-11T08:19:02.000Z</time>
      </trkpt>
      <trkpt lat="47.35648" lon="5.00062">
        <ele>360.79998779297</ele>
        <time>2014-11-11T08:19:10.000Z</time>
      </trkpt>
      <trkpt lat="47.35641" lon="5.00076">
        <ele>360.20001220703</ele>
        <time>2014-11-11T08:19:18.000Z</time>
      </trkpt>
      <trkpt lat="47.35633" lon="5.00092">
        <ele>359.60000610352</ele>
        <time>2014-11-11T08:19:27.000Z</time>
      </trkpt>
      <trkpt lat="47.35626" lon="5.00106">
        <ele>357.39999389648</ele>
        <time>2014-11-11T08:19:34.000Z</time>
      </trkpt>
      <trkpt lat="47.35617" lon="5.00122">
        <ele>354.60000610352</ele>
        <time>2014-11-11T08:19:43.000Z</time>
      </trkpt>
      <trkpt lat="47.35608" lon="5.00141">
        <ele>353.60000610352</ele>
        <time>2014-11-11T08:19:53.000Z</time>
      </trkpt>
      <trkpt lat="47.35601" lon="5.00155">
        <ele>352.60000610352</ele>
        <time>2014-11-11T08:20:01.000Z</time>
      </trkpt>
      <trkpt lat="47.35594" lon="5.00164">
        <ele>351.20001220703</ele>
        <time>2014-11-11T08:20:07.000Z</time>
      </trkpt>
      <trkpt lat="47.35582" lon="5.00175">
        <ele>349.60000610352</ele>
        <time>2014-11-11T08:20:17.000Z</time>
      </trkpt>
      <trkpt lat="47.35581" lon="5.00176">
        <ele>349.39999389648</ele>
        <time>2014-11-11T08:20:18.000Z</time>
      </trkpt>
      <trkpt lat="47.35577" lon="5.00182">
        <ele>348.39999389648</ele>
        <time>2014-11-11T08:20:22.000Z</time>
      </trkpt>
      <trkpt lat="47.35576" lon="5.00189">
        <ele>347.60000610352</ele>
        <time>2014-11-11T08:20:27.000Z</time>
      </trkpt>
      <trkpt lat="47.35583" lon="5.00192">
        <ele>347.79998779297</ele>
        <time>2014-11-11T08:20:32.000Z</time>
      </trkpt>
      <trkpt lat="47.35582" lon="5.00193">
        <ele>347.79998779297</ele>
        <time>2014-11-11T08:20:42.000Z</time>
      </trkpt>
      <trkpt lat="47.35586" lon="5.00195">
        <ele>347.60000610352</ele>
        <time>2014-11-11T08:20:53.000Z</time>
      </trkpt>
      <trkpt lat="47.35591" lon="5.00196">
        <ele>347.60000610352</ele>
        <time>2014-11-11T08:20:59.000Z</time>
      </trkpt>
      <trkpt lat="47.35599" lon="5.00201">
        <ele>347.39999389648</ele>
        <time>2014-11-11T08:21:06.000Z</time>
      </trkpt>
      <trkpt lat="47.3561" lon="5.00207">
        <ele>347.20001220703</ele>
        <time>2014-11-11T08:21:14.000Z</time>
      </trkpt>
      <trkpt lat="47.35624" lon="5.00212">
        <ele>347.20001220703</ele>
        <time>2014-11-11T08:21:24.000Z</time>
      </trkpt>
      <trkpt lat="47.35636" lon="5.00213">
        <ele>347.60000610352</ele>
        <time>2014-11-11T08:21:33.000Z</time>
      </trkpt>
      <trkpt lat="47.35652" lon="5.00212">
        <ele>348.20001220703</ele>
        <time>2014-11-11T08:21:42.000Z</time>
      </trkpt>
      <trkpt lat="47.35665" lon="5.00208">
        <ele>349</ele>
        <time>2014-11-11T08:21:51.000Z</time>
      </trkpt>
      <trkpt lat="47.35683" lon="5.00202">
        <ele>348.39999389648</ele>
        <time>2014-11-11T08:22:02.000Z</time>
      </trkpt>
      <trkpt lat="47.35701" lon="5.00196">
        <ele>347.79998779297</ele>
        <time>2014-11-11T08:22:13.000Z</time>
      </trkpt>
      <trkpt lat="47.35716" lon="5.00188">
        <ele>347.39999389648</ele>
        <time>2014-11-11T08:22:23.000Z</time>
      </trkpt>
      <trkpt lat="47.35734" lon="5.00179">
        <ele>346.79998779297</ele>
        <time>2014-11-11T08:22:35.000Z</time>
      </trkpt>
      <trkpt lat="47.35742" lon="5.00176">
        <ele>346.60000610352</ele>
        <time>2014-11-11T08:22:40.000Z</time>
      </trkpt>
      <trkpt lat="47.35757" lon="5.00168">
        <ele>346.39999389648</ele>
        <time>2014-11-11T08:22:50.000Z</time>
      </trkpt>
      <trkpt lat="47.35773" lon="5.00157">
        <ele>346.60000610352</ele>
        <time>2014-11-11T08:23:01.000Z</time>
      </trkpt>
      <trkpt lat="47.35782" lon="5.0015">
        <ele>346.60000610352</ele>
        <time>2014-11-11T08:23:08.000Z</time>
      </trkpt>
      <trkpt lat="47.35795" lon="5.00139">
        <ele>346.60000610352</ele>
        <time>2014-11-11T08:23:17.000Z</time>
      </trkpt>
      <trkpt lat="47.35803" lon="5.0012">
        <ele>346.79998779297</ele>
        <time>2014-11-11T08:23:27.000Z</time>
      </trkpt>
      <trkpt lat="47.35809" lon="5.00105">
        <ele>347</ele>
        <time>2014-11-11T08:23:35.000Z</time>
      </trkpt>
      <trkpt lat="47.35817" lon="5.00084">
        <ele>346.60000610352</ele>
        <time>2014-11-11T08:23:45.000Z</time>
      </trkpt>
      <trkpt lat="47.35825" lon="5.00067">
        <ele>346.39999389648</ele>
        <time>2014-11-11T08:23:54.000Z</time>
      </trkpt>
      <trkpt lat="47.35835" lon="5.00051">
        <ele>345.79998779297</ele>
        <time>2014-11-11T08:24:03.000Z</time>
      </trkpt>
      <trkpt lat="47.35844" lon="5.00038">
        <ele>348</ele>
        <time>2014-11-11T08:24:11.000Z</time>
      </trkpt>
      <trkpt lat="47.35855" lon="5.00027">
        <ele>348.39999389648</ele>
        <time>2014-11-11T08:24:19.000Z</time>
      </trkpt>
      <trkpt lat="47.35863" lon="5.00021">
        <ele>348.39999389648</ele>
        <time>2014-11-11T08:24:25.000Z</time>
      </trkpt>
      <trkpt lat="47.35878" lon="5.00007">
        <ele>348.79998779297</ele>
        <time>2014-11-11T08:24:37.000Z</time>
      </trkpt>
      <trkpt lat="47.35892" lon="4.99994">
        <ele>348</ele>
        <time>2014-11-11T08:24:48.000Z</time>
      </trkpt>
      <trkpt lat="47.35904" lon="4.9998">
        <ele>347</ele>
        <time>2014-11-11T08:24:58.000Z</time>
      </trkpt>
      <trkpt lat="47.35913" lon="4.99967">
        <ele>346.20001220703</ele>
        <time>2014-11-11T08:25:06.000Z</time>
      </trkpt>
      <trkpt lat="47.35924" lon="4.99948">
        <ele>346.20001220703</ele>
        <time>2014-11-11T08:25:17.000Z</time>
      </trkpt>
      <trkpt lat="47.35931" lon="4.9993">
        <ele>346.79998779297</ele>
        <time>2014-11-11T08:25:26.000Z</time>
      </trkpt>
      <trkpt lat="47.35937" lon="4.99909">
        <ele>347.60000610352</ele>
        <time>2014-11-11T08:25:36.000Z</time>
      </trkpt>
      <trkpt lat="47.35943" lon="4.99887">
        <ele>348</ele>
        <time>2014-11-11T08:25:46.000Z</time>
      </trkpt>
      <trkpt lat="47.35947" lon="4.9987">
        <ele>348.20001220703</ele>
        <time>2014-11-11T08:25:54.000Z</time>
      </trkpt>
      <trkpt lat="47.35953" lon="4.99843">
        <ele>348.39999389648</ele>
        <time>2014-11-11T08:26:06.000Z</time>
      </trkpt>
      <trkpt lat="47.35958" lon="4.99817">
        <ele>348.60000610352</ele>
        <time>2014-11-11T08:26:18.000Z</time>
      </trkpt>
      <trkpt lat="47.35961" lon="4.9979">
        <ele>349</ele>
        <time>2014-11-11T08:26:30.000Z</time>
      </trkpt>
      <trkpt lat="47.35963" lon="4.99769">
        <ele>349.20001220703</ele>
        <time>2014-11-11T08:26:39.000Z</time>
      </trkpt>
      <trkpt lat="47.35966" lon="4.99746">
        <ele>349.60000610352</ele>
        <time>2014-11-11T08:26:49.000Z</time>
      </trkpt>
      <trkpt lat="47.35973" lon="4.9972">
        <ele>350.60000610352</ele>
        <time>2014-11-11T08:27:01.000Z</time>
      </trkpt>
      <trkpt lat="47.3598" lon="4.99705">
        <ele>351.20001220703</ele>
        <time>2014-11-11T08:27:09.000Z</time>
      </trkpt>
      <trkpt lat="47.35985" lon="4.99699">
        <ele>351.39999389648</ele>
        <time>2014-11-11T08:27:13.000Z</time>
      </trkpt>
      <trkpt lat="47.35991" lon="4.99696">
        <ele>351.39999389648</ele>
        <time>2014-11-11T08:27:18.000Z</time>
      </trkpt>
      <trkpt lat="47.35999" lon="4.99702">
        <ele>351.20001220703</ele>
        <time>2014-11-11T08:27:23.000Z</time>
      </trkpt>
      <trkpt lat="47.36005" lon="4.99721">
        <ele>351</ele>
        <time>2014-11-11T08:27:32.000Z</time>
      </trkpt>
      <trkpt lat="47.36011" lon="4.99742">
        <ele>350.79998779297</ele>
        <time>2014-11-11T08:27:42.000Z</time>
      </trkpt>
      <trkpt lat="47.36016" lon="4.9976">
        <ele>350.39999389648</ele>
        <time>2014-11-11T08:27:51.000Z</time>
      </trkpt>
      <trkpt lat="47.36025" lon="4.99782">
        <ele>350.20001220703</ele>
        <time>2014-11-11T08:28:02.000Z</time>
      </trkpt>
      <trkpt lat="47.36031" lon="4.99796">
        <ele>350.39999389648</ele>
        <time>2014-11-11T08:28:09.000Z</time>
      </trkpt>
      <trkpt lat="47.36042" lon="4.99812">
        <ele>351</ele>
        <time>2014-11-11T08:28:18.000Z</time>
      </trkpt>
      <trkpt lat="47.36053" lon="4.99825">
        <ele>351.60000610352</ele>
        <time>2014-11-11T08:28:27.000Z</time>
      </trkpt>
      <trkpt lat="47.36064" lon="4.99833">
        <ele>352.20001220703</ele>
        <time>2014-11-11T08:28:35.000Z</time>
      </trkpt>
      <trkpt lat="47.36076" lon="4.99839">
        <ele>353</ele>
        <time>2014-11-11T08:28:45.000Z</time>
      </trkpt>
      <trkpt lat="47.36086" lon="4.99841">
        <ele>353.60000610352</ele>
        <time>2014-11-11T08:28:52.000Z</time>
      </trkpt>
      <trkpt lat="47.36094" lon="4.99842">
        <ele>354.20001220703</ele>
        <time>2014-11-11T08:28:59.000Z</time>
      </trkpt>
      <trkpt lat="47.36102" lon="4.99842">
        <ele>354.60000610352</ele>
        <time>2014-11-11T08:29:05.000Z</time>
      </trkpt>
      <trkpt lat="47.3611" lon="4.99841">
        <ele>355.20001220703</ele>
        <time>2014-11-11T08:29:12.000Z</time>
      </trkpt>
      <trkpt lat="47.36112" lon="4.99841">
        <ele>355.20001220703</ele>
        <time>2014-11-11T08:29:14.000Z</time>
      </trkpt>
      <trkpt lat="47.36118" lon="4.99841">
        <ele>355.60000610352</ele>
        <time>2014-11-11T08:29:19.000Z</time>
      </trkpt>
      <trkpt lat="47.36122" lon="4.9984">
        <ele>355.79998779297</ele>
        <time>2014-11-11T08:29:22.000Z</time>
      </trkpt>
      <trkpt lat="47.36126" lon="4.9984">
        <ele>356.20001220703</ele>
        <time>2014-11-11T08:29:26.000Z</time>
      </trkpt>
      <trkpt lat="47.36134" lon="4.99838">
        <ele>356.60000610352</ele>
        <time>2014-11-11T08:29:34.000Z</time>
      </trkpt>
      <trkpt lat="47.36137" lon="4.99838">
        <ele>356.79998779297</ele>
        <time>2014-11-11T08:29:36.000Z</time>
      </trkpt>
      <trkpt lat="47.36143" lon="4.99836">
        <ele>357.20001220703</ele>
        <time>2014-11-11T08:29:40.000Z</time>
      </trkpt>
      <trkpt lat="47.36148" lon="4.99836">
        <ele>357.39999389648</ele>
        <time>2014-11-11T08:29:43.000Z</time>
      </trkpt>
      <trkpt lat="47.36155" lon="4.99836">
        <ele>357.79998779297</ele>
        <time>2014-11-11T08:29:48.000Z</time>
      </trkpt>
      <trkpt lat="47.36163" lon="4.99839">
        <ele>358.39999389648</ele>
        <time>2014-11-11T08:29:53.000Z</time>
      </trkpt>
      <trkpt lat="47.36171" lon="4.99843">
        <ele>358.60000610352</ele>
        <time>2014-11-11T08:29:59.000Z</time>
      </trkpt>
      <trkpt lat="47.36179" lon="4.99847">
        <ele>358.79998779297</ele>
        <time>2014-11-11T08:30:05.000Z</time>
      </trkpt>
      <trkpt lat="47.36187" lon="4.9985">
        <ele>358.79998779297</ele>
        <time>2014-11-11T08:30:10.000Z</time>
      </trkpt>
      <trkpt lat="47.36195" lon="4.99852">
        <ele>359</ele>
        <time>2014-11-11T08:30:16.000Z</time>
      </trkpt>
      <trkpt lat="47.36202" lon="4.99856">
        <ele>359.20001220703</ele>
        <time>2014-11-11T08:30:21.000Z</time>
      </trkpt>
      <trkpt lat="47.36211" lon="4.9986">
        <ele>359.39999389648</ele>
        <time>2014-11-11T08:30:27.000Z</time>
      </trkpt>
      <trkpt lat="47.36221" lon="4.99863">
        <ele>359.60000610352</ele>
        <time>2014-11-11T08:30:32.000Z</time>
      </trkpt>
      <trkpt lat="47.36229" lon="4.99866">
        <ele>359.60000610352</ele>
        <time>2014-11-11T08:30:37.000Z</time>
      </trkpt>
      <trkpt lat="47.36235" lon="4.9987">
        <ele>359.79998779297</ele>
        <time>2014-11-11T08:30:41.000Z</time>
      </trkpt>
      <trkpt lat="47.36248" lon="4.99875">
        <ele>360</ele>
        <time>2014-11-11T08:30:49.000Z</time>
      </trkpt>
      <trkpt lat="47.36261" lon="4.99884">
        <ele>360.39999389648</ele>
        <time>2014-11-11T08:30:57.000Z</time>
      </trkpt>
      <trkpt lat="47.36272" lon="4.99896">
        <ele>360.60000610352</ele>
        <time>2014-11-11T08:31:05.000Z</time>
      </trkpt>
      <trkpt lat="47.36281" lon="4.99907">
        <ele>360.79998779297</ele>
        <time>2014-11-11T08:31:12.000Z</time>
      </trkpt>
      <trkpt lat="47.36303" lon="4.99938">
        <ele>361.20001220703</ele>
        <time>2014-11-11T08:31:29.000Z</time>
      </trkpt>
      <trkpt lat="47.36316" lon="4.99956">
        <ele>361.39999389648</ele>
        <time>2014-11-11T08:31:39.000Z</time>
      </trkpt>
      <trkpt lat="47.36329" lon="4.99975">
        <ele>361.60000610352</ele>
        <time>2014-11-11T08:31:50.000Z</time>
      </trkpt>
      <trkpt lat="47.3634" lon="4.99991">
        <ele>362.39999389648</ele>
        <time>2014-11-11T08:31:59.000Z</time>
      </trkpt>
      <trkpt lat="47.36346" lon="5.00002">
        <ele>362.60000610352</ele>
        <time>2014-11-11T08:32:05.000Z</time>
      </trkpt>
      <trkpt lat="47.36354" lon="5.00016">
        <ele>362.60000610352</ele>
        <time>2014-11-11T08:32:13.000Z</time>
      </trkpt>
      <trkpt lat="47.36366" lon="5.00031">
        <ele>362.79998779297</ele>
        <time>2014-11-11T08:32:22.000Z</time>
      </trkpt>
      <trkpt lat="47.3638" lon="5.00048">
        <ele>359.79998779297</ele>
        <time>2014-11-11T08:32:33.000Z</time>
      </trkpt>
      <trkpt lat="47.3639" lon="5.00059">
        <ele>360</ele>
        <time>2014-11-11T08:32:41.000Z</time>
      </trkpt>
      <trkpt lat="47.364" lon="5.00068">
        <ele>360.20001220703</ele>
        <time>2014-11-11T08:32:48.000Z</time>
      </trkpt>
      <trkpt lat="47.36409" lon="5.00075">
        <ele>360.39999389648</ele>
        <time>2014-11-11T08:32:55.000Z</time>
      </trkpt>
      <trkpt lat="47.36419" lon="5.00082">
        <ele>360.79998779297</ele>
        <time>2014-11-11T08:33:03.000Z</time>
      </trkpt>
      <trkpt lat="47.36424" lon="5.00093">
        <ele>360.39999389648</ele>
        <time>2014-11-11T08:33:09.000Z</time>
      </trkpt>
      <trkpt lat="47.36424" lon="5.00097">
        <ele>360.39999389648</ele>
        <time>2014-11-11T08:33:10.000Z</time>
      </trkpt>
      <trkpt lat="47.36409" lon="5.00136">
        <ele>358.39999389648</ele>
        <time>2014-11-11T08:33:29.000Z</time>
      </trkpt>
      <trkpt lat="47.36403" lon="5.00158">
        <ele>357.20001220703</ele>
        <time>2014-11-11T08:33:39.000Z</time>
      </trkpt>
      <trkpt lat="47.36399" lon="5.00172">
        <ele>356.60000610352</ele>
        <time>2014-11-11T08:33:46.000Z</time>
      </trkpt>
      <trkpt lat="47.36396" lon="5.00182">
        <ele>356</ele>
        <time>2014-11-11T08:33:51.000Z</time>
      </trkpt>
      <trkpt lat="47.36388" lon="5.00203">
        <ele>355.20001220703</ele>
        <time>2014-11-11T08:34:01.000Z</time>
      </trkpt>
      <trkpt lat="47.3638" lon="5.0022">
        <ele>354.39999389648</ele>
        <time>2014-11-11T08:34:10.000Z</time>
      </trkpt>
      <trkpt lat="47.3637" lon="5.00238">
        <ele>353.60000610352</ele>
        <time>2014-11-11T08:34:20.000Z</time>
      </trkpt>
      <trkpt lat="47.3636" lon="5.00255">
        <ele>352.60000610352</ele>
        <time>2014-11-11T08:34:29.000Z</time>
      </trkpt>
      <trkpt lat="47.3635" lon="5.00273">
        <ele>351</ele>
        <time>2014-11-11T08:34:39.000Z</time>
      </trkpt>
      <trkpt lat="47.36343" lon="5.00285">
        <ele>350</ele>
        <time>2014-11-11T08:34:46.000Z</time>
      </trkpt>
      <trkpt lat="47.36331" lon="5.00304">
        <ele>348.39999389648</ele>
        <time>2014-11-11T08:34:57.000Z</time>
      </trkpt>
      <trkpt lat="47.36319" lon="5.00322">
        <ele>346.79998779297</ele>
        <time>2014-11-11T08:35:08.000Z</time>
      </trkpt>
      <trkpt lat="47.36308" lon="5.00342">
        <ele>344.79998779297</ele>
        <time>2014-11-11T08:35:20.000Z</time>
      </trkpt>
      <trkpt lat="47.36302" lon="5.00357">
        <ele>343.79998779297</ele>
        <time>2014-11-11T08:35:28.000Z</time>
      </trkpt>
      <trkpt lat="47.36295" lon="5.00376">
        <ele>342.79998779297</ele>
        <time>2014-11-11T08:35:37.000Z</time>
      </trkpt>
      <trkpt lat="47.36288" lon="5.00398">
        <ele>341.79998779297</ele>
        <time>2014-11-11T08:35:48.000Z</time>
      </trkpt>
      <trkpt lat="47.36283" lon="5.00412">
        <ele>341.20001220703</ele>
        <time>2014-11-11T08:35:55.000Z</time>
      </trkpt>
      <trkpt lat="47.36277" lon="5.0043">
        <ele>340.39999389648</ele>
        <time>2014-11-11T08:36:04.000Z</time>
      </trkpt>
      <trkpt lat="47.36272" lon="5.00449">
        <ele>339.60000610352</ele>
        <time>2014-11-11T08:36:13.000Z</time>
      </trkpt>
      <trkpt lat="47.36268" lon="5.00469">
        <ele>339.20001220703</ele>
        <time>2014-11-11T08:36:22.000Z</time>
      </trkpt>
      <trkpt lat="47.36268" lon="5.00485">
        <ele>338.79998779297</ele>
        <time>2014-11-11T08:36:29.000Z</time>
      </trkpt>
      <trkpt lat="47.36264" lon="5.00499">
        <ele>338.20001220703</ele>
        <time>2014-11-11T08:36:36.000Z</time>
      </trkpt>
      <trkpt lat="47.36264" lon="5.00501">
        <ele>338.20001220703</ele>
        <time>2014-11-11T08:36:43.000Z</time>
      </trkpt>
      <trkpt lat="47.36259" lon="5.005">
        <ele>337.79998779297</ele>
        <time>2014-11-11T08:36:49.000Z</time>
      </trkpt>
      <trkpt lat="47.36255" lon="5.00497">
        <ele>337.60000610352</ele>
        <time>2014-11-11T08:36:53.000Z</time>
      </trkpt>
      <trkpt lat="47.36254" lon="5.00498">
        <ele>337.60000610352</ele>
        <time>2014-11-11T08:36:54.000Z</time>
      </trkpt>
      <trkpt lat="47.36244" lon="5.00497">
        <ele>336.79998779297</ele>
        <time>2014-11-11T08:37:02.000Z</time>
      </trkpt>
      <trkpt lat="47.3624" lon="5.00495">
        <ele>336.39999389648</ele>
        <time>2014-11-11T08:37:05.000Z</time>
      </trkpt>
      <trkpt lat="47.36232" lon="5.00491">
        <ele>335.60000610352</ele>
        <time>2014-11-11T08:37:12.000Z</time>
      </trkpt>
      <trkpt lat="47.36225" lon="5.00487">
        <ele>335.20001220703</ele>
        <time>2014-11-11T08:37:17.000Z</time>
      </trkpt>
      <trkpt lat="47.36218" lon="5.00483">
        <ele>334.60000610352</ele>
        <time>2014-11-11T08:37:23.000Z</time>
      </trkpt>
      <trkpt lat="47.36211" lon="5.00478">
        <ele>334</ele>
        <time>2014-11-11T08:37:29.000Z</time>
      </trkpt>
      <trkpt lat="47.36201" lon="5.00471">
        <ele>333.20001220703</ele>
        <time>2014-11-11T08:37:37.000Z</time>
      </trkpt>
      <trkpt lat="47.362" lon="5.0047">
        <ele>333.20001220703</ele>
        <time>2014-11-11T08:37:38.000Z</time>
      </trkpt>
      <trkpt lat="47.36193" lon="5.0047">
        <ele>332.39999389648</ele>
        <time>2014-11-11T08:37:46.000Z</time>
      </trkpt>
      <trkpt lat="47.3619" lon="5.00469">
        <ele>332.20001220703</ele>
        <time>2014-11-11T08:37:50.000Z</time>
      </trkpt>
      <trkpt lat="47.36187" lon="5.0047">
        <ele>332</ele>
        <time>2014-11-11T08:37:53.000Z</time>
      </trkpt>
      <trkpt lat="47.36184" lon="5.0047">
        <ele>331.60000610352</ele>
        <time>2014-11-11T08:37:59.000Z</time>
      </trkpt>
      <trkpt lat="47.36179" lon="5.0047">
        <ele>331.20001220703</ele>
        <time>2014-11-11T08:38:04.000Z</time>
      </trkpt>
      <trkpt lat="47.36176" lon="5.00471">
        <ele>330.79998779297</ele>
        <time>2014-11-11T08:38:08.000Z</time>
      </trkpt>
      <trkpt lat="47.36173" lon="5.0047">
        <ele>330.60000610352</ele>
        <time>2014-11-11T08:38:14.000Z</time>
      </trkpt>
      <trkpt lat="47.36171" lon="5.00469">
        <ele>330.39999389648</ele>
        <time>2014-11-11T08:38:20.000Z</time>
      </trkpt>
      <trkpt lat="47.36169" lon="5.00467">
        <ele>330.20001220703</ele>
        <time>2014-11-11T08:38:48.000Z</time>
      </trkpt>
      <trkpt lat="47.36167" lon="5.00467">
        <ele>330</ele>
        <time>2014-11-11T08:38:59.000Z</time>
      </trkpt>
      <trkpt lat="47.36161" lon="5.00465">
        <ele>329.79998779297</ele>
        <time>2014-11-11T08:39:39.000Z</time>
      </trkpt>
      <trkpt lat="47.36157" lon="5.00466">
        <ele>329.79998779297</ele>
        <time>2014-11-11T08:39:43.000Z</time>
      </trkpt>
      <trkpt lat="47.36151" lon="5.00473">
        <ele>329.39999389648</ele>
        <time>2014-11-11T08:39:50.000Z</time>
      </trkpt>
      <trkpt lat="47.36149" lon="5.00477">
        <ele>329.39999389648</ele>
        <time>2014-11-11T08:39:54.000Z</time>
      </trkpt>
      <trkpt lat="47.36147" lon="5.00479">
        <ele>329.39999389648</ele>
        <time>2014-11-11T08:39:56.000Z</time>
      </trkpt>
      <trkpt lat="47.36144" lon="5.00486">
        <ele>329.20001220703</ele>
        <time>2014-11-11T08:40:02.000Z</time>
      </trkpt>
      <trkpt lat="47.36141" lon="5.00498">
        <ele>328.79998779297</ele>
        <time>2014-11-11T08:40:08.000Z</time>
      </trkpt>
      <trkpt lat="47.36139" lon="5.0051">
        <ele>328.39999389648</ele>
        <time>2014-11-11T08:40:14.000Z</time>
      </trkpt>
      <trkpt lat="47.36137" lon="5.00516">
        <ele>328.39999389648</ele>
        <time>2014-11-11T08:40:17.000Z</time>
      </trkpt>
      <trkpt lat="47.36136" lon="5.00519">
        <ele>328.20001220703</ele>
        <time>2014-11-11T08:40:19.000Z</time>
      </trkpt>
      <trkpt lat="47.36133" lon="5.00527">
        <ele>328.20001220703</ele>
        <time>2014-11-11T08:40:24.000Z</time>
      </trkpt>
      <trkpt lat="47.36132" lon="5.00528">
        <ele>328.20001220703</ele>
        <time>2014-11-11T08:40:25.000Z</time>
      </trkpt>
      <trkpt lat="47.36126" lon="5.00538">
        <ele>328</ele>
        <time>2014-11-11T08:40:32.000Z</time>
      </trkpt>
      <trkpt lat="47.36126" lon="5.0054">
        <ele>328</ele>
        <time>2014-11-11T08:40:33.000Z</time>
      </trkpt>
      <trkpt lat="47.36124" lon="5.0054">
        <ele>328</ele>
        <time>2014-11-11T08:40:38.000Z</time>
      </trkpt>
      <trkpt lat="47.36123" lon="5.00548">
        <ele>327.79998779297</ele>
        <time>2014-11-11T08:40:45.000Z</time>
      </trkpt>
      <trkpt lat="47.36122" lon="5.0055">
        <ele>327.79998779297</ele>
        <time>2014-11-11T08:40:46.000Z</time>
      </trkpt>
      <trkpt lat="47.3612" lon="5.00551">
        <ele>327.60000610352</ele>
        <time>2014-11-11T08:40:49.000Z</time>
      </trkpt>
      <trkpt lat="47.36121" lon="5.00557">
        <ele>327.39999389648</ele>
        <time>2014-11-11T08:40:53.000Z</time>
      </trkpt>
      <trkpt lat="47.3612" lon="5.00565">
        <ele>327.20001220703</ele>
        <time>2014-11-11T08:40:58.000Z</time>
      </trkpt>
      <trkpt lat="47.36118" lon="5.00572">
        <ele>327</ele>
        <time>2014-11-11T08:41:02.000Z</time>
      </trkpt>
      <trkpt lat="47.3611" lon="5.00588">
        <ele>326.60000610352</ele>
        <time>2014-11-11T08:41:11.000Z</time>
      </trkpt>
      <trkpt lat="47.36107" lon="5.00596">
        <ele>326.39999389648</ele>
        <time>2014-11-11T08:41:15.000Z</time>
      </trkpt>
      <trkpt lat="47.36106" lon="5.006">
        <ele>326.20001220703</ele>
        <time>2014-11-11T08:41:17.000Z</time>
      </trkpt>
      <trkpt lat="47.36105" lon="5.00606">
        <ele>326.20001220703</ele>
        <time>2014-11-11T08:41:20.000Z</time>
      </trkpt>
      <trkpt lat="47.36104" lon="5.00616">
        <ele>326</ele>
        <time>2014-11-11T08:41:25.000Z</time>
      </trkpt>
      <trkpt lat="47.36102" lon="5.0062">
        <ele>325.79998779297</ele>
        <time>2014-11-11T08:41:27.000Z</time>
      </trkpt>
      <trkpt lat="47.361" lon="5.00629">
        <ele>325.60000610352</ele>
        <time>2014-11-11T08:41:32.000Z</time>
      </trkpt>
      <trkpt lat="47.36101" lon="5.00645">
        <ele>324.60000610352</ele>
        <time>2014-11-11T08:41:39.000Z</time>
      </trkpt>
      <trkpt lat="47.36101" lon="5.00656">
        <ele>324.39999389648</ele>
        <time>2014-11-11T08:41:44.000Z</time>
      </trkpt>
      <trkpt lat="47.36102" lon="5.00663">
        <ele>324.20001220703</ele>
        <time>2014-11-11T08:41:47.000Z</time>
      </trkpt>
      <trkpt lat="47.36102" lon="5.00667">
        <ele>324</ele>
        <time>2014-11-11T08:41:49.000Z</time>
      </trkpt>
      <trkpt lat="47.36105" lon="5.00676">
        <ele>323.60000610352</ele>
        <time>2014-11-11T08:41:53.000Z</time>
      </trkpt>
      <trkpt lat="47.36109" lon="5.0069">
        <ele>323</ele>
        <time>2014-11-11T08:42:00.000Z</time>
      </trkpt>
      <trkpt lat="47.3611" lon="5.007">
        <ele>322.79998779297</ele>
        <time>2014-11-11T08:42:05.000Z</time>
      </trkpt>
      <trkpt lat="47.36112" lon="5.00713">
        <ele>322.39999389648</ele>
        <time>2014-11-11T08:42:11.000Z</time>
      </trkpt>
      <trkpt lat="47.36112" lon="5.00722">
        <ele>322.39999389648</ele>
        <time>2014-11-11T08:42:15.000Z</time>
      </trkpt>
      <trkpt lat="47.36113" lon="5.0073">
        <ele>322.20001220703</ele>
        <time>2014-11-11T08:42:19.000Z</time>
      </trkpt>
      <trkpt lat="47.36122" lon="5.0075">
        <ele>321.60000610352</ele>
        <time>2014-11-11T08:42:29.000Z</time>
      </trkpt>
      <trkpt lat="47.36126" lon="5.00765">
        <ele>321.39999389648</ele>
        <time>2014-11-11T08:42:36.000Z</time>
      </trkpt>
      <trkpt lat="47.3613" lon="5.00779">
        <ele>321</ele>
        <time>2014-11-11T08:42:43.000Z</time>
      </trkpt>
      <trkpt lat="47.36135" lon="5.00791">
        <ele>320.79998779297</ele>
        <time>2014-11-11T08:42:49.000Z</time>
      </trkpt>
      <trkpt lat="47.36141" lon="5.00805">
        <ele>320</ele>
        <time>2014-11-11T08:42:56.000Z</time>
      </trkpt>
      <trkpt lat="47.36145" lon="5.00818">
        <ele>319.20001220703</ele>
        <time>2014-11-11T08:43:02.000Z</time>
      </trkpt>
      <trkpt lat="47.36146" lon="5.00827">
        <ele>318.79998779297</ele>
        <time>2014-11-11T08:43:06.000Z</time>
      </trkpt>
      <trkpt lat="47.3615" lon="5.00844">
        <ele>318</ele>
        <time>2014-11-11T08:43:14.000Z</time>
      </trkpt>
      <trkpt lat="47.36154" lon="5.0086">
        <ele>317.20001220703</ele>
        <time>2014-11-11T08:43:22.000Z</time>
      </trkpt>
      <trkpt lat="47.36155" lon="5.00864">
        <ele>317</ele>
        <time>2014-11-11T08:43:24.000Z</time>
      </trkpt>
      <trkpt lat="47.36157" lon="5.00877">
        <ele>316.60000610352</ele>
        <time>2014-11-11T08:43:31.000Z</time>
      </trkpt>
      <trkpt lat="47.36157" lon="5.00895">
        <ele>316</ele>
        <time>2014-11-11T08:43:39.000Z</time>
      </trkpt>
      <trkpt lat="47.36158" lon="5.00909">
        <ele>315.39999389648</ele>
        <time>2014-11-11T08:43:46.000Z</time>
      </trkpt>
      <trkpt lat="47.3616" lon="5.00925">
        <ele>314.60000610352</ele>
        <time>2014-11-11T08:43:54.000Z</time>
      </trkpt>
      <trkpt lat="47.36162" lon="5.00945">
        <ele>313.79998779297</ele>
        <time>2014-11-11T08:44:03.000Z</time>
      </trkpt>
      <trkpt lat="47.36162" lon="5.00965">
        <ele>313</ele>
        <time>2014-11-11T08:44:12.000Z</time>
      </trkpt>
      <trkpt lat="47.36163" lon="5.00981">
        <ele>312.39999389648</ele>
        <time>2014-11-11T08:44:19.000Z</time>
      </trkpt>
      <trkpt lat="47.36162" lon="5.00999">
        <ele>311.79998779297</ele>
        <time>2014-11-11T08:44:27.000Z</time>
      </trkpt>
      <trkpt lat="47.36162" lon="5.01017">
        <ele>311.20001220703</ele>
        <time>2014-11-11T08:44:35.000Z</time>
      </trkpt>
      <trkpt lat="47.36161" lon="5.01037">
        <ele>310.60000610352</ele>
        <time>2014-11-11T08:44:44.000Z</time>
      </trkpt>
      <trkpt lat="47.36161" lon="5.01053">
        <ele>310</ele>
        <time>2014-11-11T08:44:51.000Z</time>
      </trkpt>
      <trkpt lat="47.36161" lon="5.01065">
        <ele>309.60000610352</ele>
        <time>2014-11-11T08:44:57.000Z</time>
      </trkpt>
      <trkpt lat="47.36161" lon="5.01072">
        <ele>309.39999389648</ele>
        <time>2014-11-11T08:45:01.000Z</time>
      </trkpt>
      <trkpt lat="47.36163" lon="5.01081">
        <ele>308.79998779297</ele>
        <time>2014-11-11T08:45:07.000Z</time>
      </trkpt>
      <trkpt lat="47.36165" lon="5.01092">
        <ele>308.39999389648</ele>
        <time>2014-11-11T08:45:12.000Z</time>
      </trkpt>
      <trkpt lat="47.36167" lon="5.011">
        <ele>308.20001220703</ele>
        <time>2014-11-11T08:45:16.000Z</time>
      </trkpt>
      <trkpt lat="47.36169" lon="5.01114">
        <ele>308</ele>
        <time>2014-11-11T08:45:22.000Z</time>
      </trkpt>
      <trkpt lat="47.3617" lon="5.01127">
        <ele>307.79998779297</ele>
        <time>2014-11-11T08:45:28.000Z</time>
      </trkpt>
      <trkpt lat="47.36171" lon="5.01142">
        <ele>307.60000610352</ele>
        <time>2014-11-11T08:45:35.000Z</time>
      </trkpt>
      <trkpt lat="47.36172" lon="5.01158">
        <ele>307.60000610352</ele>
        <time>2014-11-11T08:45:42.000Z</time>
      </trkpt>
      <trkpt lat="47.36174" lon="5.01174">
        <ele>307.79998779297</ele>
        <time>2014-11-11T08:45:50.000Z</time>
      </trkpt>
      <trkpt lat="47.36177" lon="5.01192">
        <ele>308.20001220703</ele>
        <time>2014-11-11T08:45:59.000Z</time>
      </trkpt>
      <trkpt lat="47.36179" lon="5.01213">
        <ele>308.20001220703</ele>
        <time>2014-11-11T08:46:09.000Z</time>
      </trkpt>
      <trkpt lat="47.36179" lon="5.01216">
        <ele>308</ele>
        <time>2014-11-11T08:46:10.000Z</time>
      </trkpt>
      <trkpt lat="47.36179" lon="5.01225">
        <ele>307.79998779297</ele>
        <time>2014-11-11T08:46:14.000Z</time>
      </trkpt>
      <trkpt lat="47.36179" lon="5.01248">
        <ele>307</ele>
        <time>2014-11-11T08:46:25.000Z</time>
      </trkpt>
      <trkpt lat="47.36179" lon="5.01272">
        <ele>306.20001220703</ele>
        <time>2014-11-11T08:46:36.000Z</time>
      </trkpt>
      <trkpt lat="47.36178" lon="5.01284">
        <ele>305.60000610352</ele>
        <time>2014-11-11T08:46:42.000Z</time>
      </trkpt>
      <trkpt lat="47.36175" lon="5.01303">
        <ele>304.79998779297</ele>
        <time>2014-11-11T08:46:51.000Z</time>
      </trkpt>
      <trkpt lat="47.36171" lon="5.0132">
        <ele>303.79998779297</ele>
        <time>2014-11-11T08:46:59.000Z</time>
      </trkpt>
      <trkpt lat="47.36168" lon="5.01338">
        <ele>302.79998779297</ele>
        <time>2014-11-11T08:47:08.000Z</time>
      </trkpt>
      <trkpt lat="47.36166" lon="5.0135">
        <ele>302</ele>
        <time>2014-11-11T08:47:14.000Z</time>
      </trkpt>
      <trkpt lat="47.36162" lon="5.0137">
        <ele>301.39999389648</ele>
        <time>2014-11-11T08:47:24.000Z</time>
      </trkpt>
      <trkpt lat="47.3616" lon="5.01383">
        <ele>301.60000610352</ele>
        <time>2014-11-11T08:47:31.000Z</time>
      </trkpt>
      <trkpt lat="47.36163" lon="5.01398">
        <ele>301.20001220703</ele>
        <time>2014-11-11T08:47:39.000Z</time>
      </trkpt>
      <trkpt lat="47.36164" lon="5.01401">
        <ele>301</ele>
        <time>2014-11-11T08:47:45.000Z</time>
      </trkpt>
      <trkpt lat="47.36166" lon="5.01412">
        <ele>301</ele>
        <time>2014-11-11T08:47:51.000Z</time>
      </trkpt>
      <trkpt lat="47.36167" lon="5.01427">
        <ele>301.20001220703</ele>
        <time>2014-11-11T08:47:59.000Z</time>
      </trkpt>
      <trkpt lat="47.36171" lon="5.01443">
        <ele>301.60000610352</ele>
        <time>2014-11-11T08:48:08.000Z</time>
      </trkpt>
      <trkpt lat="47.36175" lon="5.01455">
        <ele>301.79998779297</ele>
        <time>2014-11-11T08:48:15.000Z</time>
      </trkpt>
      <trkpt lat="47.3618" lon="5.01466">
        <ele>302</ele>
        <time>2014-11-11T08:48:23.000Z</time>
      </trkpt>
      <trkpt lat="47.36182" lon="5.01473">
        <ele>302</ele>
        <time>2014-11-11T08:48:29.000Z</time>
      </trkpt>
      <trkpt lat="47.36183" lon="5.01474">
        <ele>302</ele>
        <time>2014-11-11T08:48:30.000Z</time>
      </trkpt>
      <trkpt lat="47.36185" lon="5.01477">
        <ele>302</ele>
        <time>2014-11-11T08:48:33.000Z</time>
      </trkpt>
      <trkpt lat="47.36187" lon="5.01478">
        <ele>302.20001220703</ele>
        <time>2014-11-11T08:48:35.000Z</time>
      </trkpt>
      <trkpt lat="47.36191" lon="5.01481">
        <ele>302.39999389648</ele>
        <time>2014-11-11T08:48:40.000Z</time>
      </trkpt>
      <trkpt lat="47.36198" lon="5.01489">
        <ele>302.79998779297</ele>
        <time>2014-11-11T08:48:47.000Z</time>
      </trkpt>
      <trkpt lat="47.36207" lon="5.01495">
        <ele>303.20001220703</ele>
        <time>2014-11-11T08:48:55.000Z</time>
      </trkpt>
      <trkpt lat="47.36213" lon="5.01504">
        <ele>303.39999389648</ele>
        <time>2014-11-11T08:49:01.000Z</time>
      </trkpt>
      <trkpt lat="47.3622" lon="5.01509">
        <ele>303.79998779297</ele>
        <time>2014-11-11T08:49:07.000Z</time>
      </trkpt>
      <trkpt lat="47.36227" lon="5.01513">
        <ele>304.20001220703</ele>
        <time>2014-11-11T08:49:14.000Z</time>
      </trkpt>
      <trkpt lat="47.36237" lon="5.01519">
        <ele>304.79998779297</ele>
        <time>2014-11-11T08:49:20.000Z</time>
      </trkpt>
      <trkpt lat="47.36245" lon="5.01523">
        <ele>305.20001220703</ele>
        <time>2014-11-11T08:49:27.000Z</time>
      </trkpt>
      <trkpt lat="47.36256" lon="5.01529">
        <ele>305.60000610352</ele>
        <time>2014-11-11T08:49:36.000Z</time>
      </trkpt>
      <trkpt lat="47.36268" lon="5.01536">
        <ele>305.79998779297</ele>
        <time>2014-11-11T08:49:45.000Z</time>
      </trkpt>
      <trkpt lat="47.36279" lon="5.01538">
        <ele>306.20001220703</ele>
        <time>2014-11-11T08:49:53.000Z</time>
      </trkpt>
      <trkpt lat="47.3629" lon="5.01543">
        <ele>306.39999389648</ele>
        <time>2014-11-11T08:50:01.000Z</time>
      </trkpt>
      <trkpt lat="47.36298" lon="5.01548">
        <ele>306.60000610352</ele>
        <time>2014-11-11T08:50:08.000Z</time>
      </trkpt>
      <trkpt lat="47.36304" lon="5.01552">
        <ele>306.60000610352</ele>
        <time>2014-11-11T08:50:13.000Z</time>
      </trkpt>
      <trkpt lat="47.36312" lon="5.01558">
        <ele>306.60000610352</ele>
        <time>2014-11-11T08:50:19.000Z</time>
      </trkpt>
      <trkpt lat="47.3632" lon="5.01565">
        <ele>306.39999389648</ele>
        <time>2014-11-11T08:50:25.000Z</time>
      </trkpt>
      <trkpt lat="47.36331" lon="5.01574">
        <ele>306.39999389648</ele>
        <time>2014-11-11T08:50:33.000Z</time>
      </trkpt>
      <trkpt lat="47.36338" lon="5.0158">
        <ele>306.60000610352</ele>
        <time>2014-11-11T08:50:39.000Z</time>
      </trkpt>
      <trkpt lat="47.36348" lon="5.01587">
        <ele>306.60000610352</ele>
        <time>2014-11-11T08:50:47.000Z</time>
      </trkpt>
      <trkpt lat="47.36357" lon="5.01594">
        <ele>306.79998779297</ele>
        <time>2014-11-11T08:50:54.000Z</time>
      </trkpt>
      <trkpt lat="47.36365" lon="5.01599">
        <ele>306.79998779297</ele>
        <time>2014-11-11T08:51:00.000Z</time>
      </trkpt>
      <trkpt lat="47.36375" lon="5.01606">
        <ele>307</ele>
        <time>2014-11-11T08:51:08.000Z</time>
      </trkpt>
      <trkpt lat="47.36384" lon="5.01611">
        <ele>307.20001220703</ele>
        <time>2014-11-11T08:51:15.000Z</time>
      </trkpt>
      <trkpt lat="47.36392" lon="5.01614">
        <ele>307.39999389648</ele>
        <time>2014-11-11T08:51:21.000Z</time>
      </trkpt>
      <trkpt lat="47.36393" lon="5.01614">
        <ele>307.60000610352</ele>
        <time>2014-11-11T08:51:22.000Z</time>
      </trkpt>
      <trkpt lat="47.36403" lon="5.01618">
        <ele>307.79998779297</ele>
        <time>2014-11-11T08:51:30.000Z</time>
      </trkpt>
      <trkpt lat="47.36413" lon="5.01618">
        <ele>308.60000610352</ele>
        <time>2014-11-11T08:51:38.000Z</time>
      </trkpt>
      <trkpt lat="47.36421" lon="5.01617">
        <ele>308.79998779297</ele>
        <time>2014-11-11T08:51:45.000Z</time>
      </trkpt>
      <trkpt lat="47.36422" lon="5.01617">
        <ele>308.79998779297</ele>
        <time>2014-11-11T08:51:46.000Z</time>
      </trkpt>
      <trkpt lat="47.36427" lon="5.01618">
        <ele>308.79998779297</ele>
        <time>2014-11-11T08:51:51.000Z</time>
      </trkpt>
      <trkpt lat="47.36433" lon="5.01618">
        <ele>308.79998779297</ele>
        <time>2014-11-11T08:51:55.000Z</time>
      </trkpt>
      <trkpt lat="47.36439" lon="5.01619">
        <ele>308.79998779297</ele>
        <time>2014-11-11T08:52:00.000Z</time>
      </trkpt>
      <trkpt lat="47.36446" lon="5.0162">
        <ele>308.79998779297</ele>
        <time>2014-11-11T08:52:05.000Z</time>
      </trkpt>
      <trkpt lat="47.36453" lon="5.0162">
        <ele>308.79998779297</ele>
        <time>2014-11-11T08:52:10.000Z</time>
      </trkpt>
      <trkpt lat="47.36462" lon="5.01621">
        <ele>308.79998779297</ele>
        <time>2014-11-11T08:52:17.000Z</time>
      </trkpt>
      <trkpt lat="47.36463" lon="5.01622">
        <ele>308.79998779297</ele>
        <time>2014-11-11T08:52:18.000Z</time>
      </trkpt>
      <trkpt lat="47.36475" lon="5.01624">
        <ele>308.79998779297</ele>
        <time>2014-11-11T08:52:25.000Z</time>
      </trkpt>
      <trkpt lat="47.36481" lon="5.01627">
        <ele>308.60000610352</ele>
        <time>2014-11-11T08:52:29.000Z</time>
      </trkpt>
      <trkpt lat="47.36493" lon="5.0163">
        <ele>308.60000610352</ele>
        <time>2014-11-11T08:52:36.000Z</time>
      </trkpt>
      <trkpt lat="47.36501" lon="5.01633">
        <ele>308.60000610352</ele>
        <time>2014-11-11T08:52:41.000Z</time>
      </trkpt>
      <trkpt lat="47.36509" lon="5.01634">
        <ele>308.60000610352</ele>
        <time>2014-11-11T08:52:47.000Z</time>
      </trkpt>
      <trkpt lat="47.36511" lon="5.01634">
        <ele>308.60000610352</ele>
        <time>2014-11-11T08:52:48.000Z</time>
      </trkpt>
      <trkpt lat="47.3652" lon="5.01636">
        <ele>308.39999389648</ele>
        <time>2014-11-11T08:52:54.000Z</time>
      </trkpt>
      <trkpt lat="47.36521" lon="5.01637">
        <ele>308.39999389648</ele>
        <time>2014-11-11T08:52:55.000Z</time>
      </trkpt>
      <trkpt lat="47.36531" lon="5.01638">
        <ele>308.20001220703</ele>
        <time>2014-11-11T08:53:01.000Z</time>
      </trkpt>
      <trkpt lat="47.36542" lon="5.01639">
        <ele>308</ele>
        <time>2014-11-11T08:53:08.000Z</time>
      </trkpt>
      <trkpt lat="47.36553" lon="5.01638">
        <ele>307.79998779297</ele>
        <time>2014-11-11T08:53:15.000Z</time>
      </trkpt>
      <trkpt lat="47.36561" lon="5.01633">
        <ele>308</ele>
        <time>2014-11-11T08:53:21.000Z</time>
      </trkpt>
      <trkpt lat="47.36575" lon="5.01629">
        <ele>308</ele>
        <time>2014-11-11T08:53:30.000Z</time>
      </trkpt>
      <trkpt lat="47.36588" lon="5.01626">
        <ele>308</ele>
        <time>2014-11-11T08:53:38.000Z</time>
      </trkpt>
      <trkpt lat="47.36601" lon="5.01625">
        <ele>307.79998779297</ele>
        <time>2014-11-11T08:53:46.000Z</time>
      </trkpt>
      <trkpt lat="47.36617" lon="5.01626">
        <ele>307.60000610352</ele>
        <time>2014-11-11T08:53:56.000Z</time>
      </trkpt>
      <trkpt lat="47.36622" lon="5.01628">
        <ele>307.39999389648</ele>
        <time>2014-11-11T08:53:59.000Z</time>
      </trkpt>
      <trkpt lat="47.36626" lon="5.01641">
        <ele>306.79998779297</ele>
        <time>2014-11-11T08:54:06.000Z</time>
      </trkpt>
      <trkpt lat="47.36625" lon="5.01649">
        <ele>306.39999389648</ele>
        <time>2014-11-11T08:54:10.000Z</time>
      </trkpt>
      <trkpt lat="47.36623" lon="5.01668">
        <ele>305.39999389648</ele>
        <time>2014-11-11T08:54:19.000Z</time>
      </trkpt>
      <trkpt lat="47.36623" lon="5.01681">
        <ele>305</ele>
        <time>2014-11-11T08:54:26.000Z</time>
      </trkpt>
      <trkpt lat="47.36625" lon="5.01701">
        <ele>304.20001220703</ele>
        <time>2014-11-11T08:54:35.000Z</time>
      </trkpt>
      <trkpt lat="47.36626" lon="5.01702">
        <ele>304.20001220703</ele>
        <time>2014-11-11T08:54:36.000Z</time>
      </trkpt>
      <trkpt lat="47.3663" lon="5.01703">
        <ele>304</ele>
        <time>2014-11-11T08:54:39.000Z</time>
      </trkpt>
      <trkpt lat="47.36641" lon="5.01703">
        <ele>303.79998779297</ele>
        <time>2014-11-11T08:54:48.000Z</time>
      </trkpt>
      <trkpt lat="47.36651" lon="5.01705">
        <ele>303.39999389648</ele>
        <time>2014-11-11T08:54:55.000Z</time>
      </trkpt>
      <trkpt lat="47.36659" lon="5.01709">
        <ele>303.20001220703</ele>
        <time>2014-11-11T08:55:02.000Z</time>
      </trkpt>
      <trkpt lat="47.3667" lon="5.01715">
        <ele>302.60000610352</ele>
        <time>2014-11-11T08:55:10.000Z</time>
      </trkpt>
      <trkpt lat="47.36678" lon="5.01727">
        <ele>301.79998779297</ele>
        <time>2014-11-11T08:55:18.000Z</time>
      </trkpt>
      <trkpt lat="47.36682" lon="5.01745">
        <ele>300.60000610352</ele>
        <time>2014-11-11T08:55:26.000Z</time>
      </trkpt>
      <trkpt lat="47.3668" lon="5.01765">
        <ele>299.39999389648</ele>
        <time>2014-11-11T08:55:36.000Z</time>
      </trkpt>
      <trkpt lat="47.3668" lon="5.01781">
        <ele>298.39999389648</ele>
        <time>2014-11-11T08:55:44.000Z</time>
      </trkpt>
      <trkpt lat="47.36683" lon="5.01789">
        <ele>298</ele>
        <time>2014-11-11T08:55:49.000Z</time>
      </trkpt>
      <trkpt lat="47.36693" lon="5.01796">
        <ele>297.39999389648</ele>
        <time>2014-11-11T08:55:58.000Z</time>
      </trkpt>
      <trkpt lat="47.36705" lon="5.01803">
        <ele>296.79998779297</ele>
        <time>2014-11-11T08:56:07.000Z</time>
      </trkpt>
      <trkpt lat="47.36715" lon="5.01809">
        <ele>296.20001220703</ele>
        <time>2014-11-11T08:56:15.000Z</time>
      </trkpt>
      <trkpt lat="47.36724" lon="5.01812">
        <ele>295.79998779297</ele>
        <time>2014-11-11T08:56:21.000Z</time>
      </trkpt>
      <trkpt lat="47.36739" lon="5.01818">
        <ele>295.20001220703</ele>
        <time>2014-11-11T08:56:33.000Z</time>
      </trkpt>
      <trkpt lat="47.36748" lon="5.0182">
        <ele>295</ele>
        <time>2014-11-11T08:56:40.000Z</time>
      </trkpt>
      <trkpt lat="47.36757" lon="5.01824">
        <ele>294.39999389648</ele>
        <time>2014-11-11T08:56:47.000Z</time>
      </trkpt>
      <trkpt lat="47.36767" lon="5.01828">
        <ele>293.60000610352</ele>
        <time>2014-11-11T08:56:55.000Z</time>
      </trkpt>
      <trkpt lat="47.36777" lon="5.01838">
        <ele>292.60000610352</ele>
        <time>2014-11-11T08:57:04.000Z</time>
      </trkpt>
      <trkpt lat="47.3678" lon="5.01852">
        <ele>291.60000610352</ele>
        <time>2014-11-11T08:57:10.000Z</time>
      </trkpt>
      <trkpt lat="47.3678" lon="5.01876">
        <ele>289.79998779297</ele>
        <time>2014-11-11T08:57:21.000Z</time>
      </trkpt>
      <trkpt lat="47.36779" lon="5.01897">
        <ele>288.79998779297</ele>
        <time>2014-11-11T08:57:31.000Z</time>
      </trkpt>
      <trkpt lat="47.36779" lon="5.01917">
        <ele>287.79998779297</ele>
        <time>2014-11-11T08:57:40.000Z</time>
      </trkpt>
      <trkpt lat="47.36778" lon="5.01939">
        <ele>286.79998779297</ele>
        <time>2014-11-11T08:57:50.000Z</time>
      </trkpt>
      <trkpt lat="47.36777" lon="5.01957">
        <ele>286</ele>
        <time>2014-11-11T08:57:58.000Z</time>
      </trkpt>
      <trkpt lat="47.36777" lon="5.01977">
        <ele>285</ele>
        <time>2014-11-11T08:58:07.000Z</time>
      </trkpt>
      <trkpt lat="47.36776" lon="5.01988">
        <ele>284.60000610352</ele>
        <time>2014-11-11T08:58:12.000Z</time>
      </trkpt>
      <trkpt lat="47.36765" lon="5.01998">
        <ele>284.39999389648</ele>
        <time>2014-11-11T08:58:20.000Z</time>
      </trkpt>
      <trkpt lat="47.36757" lon="5.02008">
        <ele>284.20001220703</ele>
        <time>2014-11-11T08:58:27.000Z</time>
      </trkpt>
      <trkpt lat="47.36749" lon="5.02012">
        <ele>284.39999389648</ele>
        <time>2014-11-11T08:58:33.000Z</time>
      </trkpt>
      <trkpt lat="47.36739" lon="5.02015">
        <ele>284.39999389648</ele>
        <time>2014-11-11T08:58:40.000Z</time>
      </trkpt>
      <trkpt lat="47.36728" lon="5.02018">
        <ele>284.20001220703</ele>
        <time>2014-11-11T08:58:48.000Z</time>
      </trkpt>
      <trkpt lat="47.36718" lon="5.02021">
        <ele>284</ele>
        <time>2014-11-11T08:58:55.000Z</time>
      </trkpt>
      <trkpt lat="47.36709" lon="5.02022">
        <ele>283.79998779297</ele>
        <time>2014-11-11T08:59:02.000Z</time>
      </trkpt>
      <trkpt lat="47.36698" lon="5.02025">
        <ele>283.39999389648</ele>
        <time>2014-11-11T08:59:10.000Z</time>
      </trkpt>
      <trkpt lat="47.36682" lon="5.02028">
        <ele>283</ele>
        <time>2014-11-11T08:59:21.000Z</time>
      </trkpt>
      <trkpt lat="47.36666" lon="5.02028">
        <ele>282.79998779297</ele>
        <time>2014-11-11T08:59:32.000Z</time>
      </trkpt>
      <trkpt lat="47.36651" lon="5.02026">
        <ele>282.79998779297</ele>
        <time>2014-11-11T08:59:42.000Z</time>
      </trkpt>
      <trkpt lat="47.36639" lon="5.02022">
        <ele>282.79998779297</ele>
        <time>2014-11-11T08:59:50.000Z</time>
      </trkpt>
      <trkpt lat="47.36628" lon="5.02019">
        <ele>282.79998779297</ele>
        <time>2014-11-11T08:59:57.000Z</time>
      </trkpt>
      <trkpt lat="47.36617" lon="5.02016">
        <ele>282.79998779297</ele>
        <time>2014-11-11T09:00:05.000Z</time>
      </trkpt>
      <trkpt lat="47.36604" lon="5.02009">
        <ele>283</ele>
        <time>2014-11-11T09:00:14.000Z</time>
      </trkpt>
      <trkpt lat="47.36588" lon="5.02001">
        <ele>283.20001220703</ele>
        <time>2014-11-11T09:00:25.000Z</time>
      </trkpt>
      <trkpt lat="47.36575" lon="5.01996">
        <ele>283.20001220703</ele>
        <time>2014-11-11T09:00:34.000Z</time>
      </trkpt>
      <trkpt lat="47.36561" lon="5.01992">
        <ele>283.39999389648</ele>
        <time>2014-11-11T09:00:43.000Z</time>
      </trkpt>
      <trkpt lat="47.36548" lon="5.01988">
        <ele>283.39999389648</ele>
        <time>2014-11-11T09:00:52.000Z</time>
      </trkpt>
      <trkpt lat="47.36535" lon="5.01984">
        <ele>283.60000610352</ele>
        <time>2014-11-11T09:01:01.000Z</time>
      </trkpt>
      <trkpt lat="47.36523" lon="5.01979">
        <ele>283.79998779297</ele>
        <time>2014-11-11T09:01:09.000Z</time>
      </trkpt>
      <trkpt lat="47.36505" lon="5.01974">
        <ele>284.20001220703</ele>
        <time>2014-11-11T09:01:21.000Z</time>
      </trkpt>
      <trkpt lat="47.36487" lon="5.01972">
        <ele>284.39999389648</ele>
        <time>2014-11-11T09:01:33.000Z</time>
      </trkpt>
      <trkpt lat="47.36473" lon="5.01971">
        <ele>284.39999389648</ele>
        <time>2014-11-11T09:01:43.000Z</time>
      </trkpt>
      <trkpt lat="47.36462" lon="5.0197">
        <ele>284.39999389648</ele>
        <time>2014-11-11T09:01:51.000Z</time>
      </trkpt>
      <trkpt lat="47.36461" lon="5.0197">
        <ele>284.39999389648</ele>
        <time>2014-11-11T09:01:52.000Z</time>
      </trkpt>
      <trkpt lat="47.36453" lon="5.01969">
        <ele>284.60000610352</ele>
        <time>2014-11-11T09:01:57.000Z</time>
      </trkpt>
      <trkpt lat="47.36452" lon="5.01969">
        <ele>284.60000610352</ele>
        <time>2014-11-11T09:01:58.000Z</time>
      </trkpt>
      <trkpt lat="47.36439" lon="5.01965">
        <ele>284.60000610352</ele>
        <time>2014-11-11T09:02:06.000Z</time>
      </trkpt>
      <trkpt lat="47.36429" lon="5.01962">
        <ele>284.79998779297</ele>
        <time>2014-11-11T09:02:13.000Z</time>
      </trkpt>
      <trkpt lat="47.36415" lon="5.01959">
        <ele>285</ele>
        <time>2014-11-11T09:02:22.000Z</time>
      </trkpt>
      <trkpt lat="47.364" lon="5.01954">
        <ele>285</ele>
        <time>2014-11-11T09:02:32.000Z</time>
      </trkpt>
      <trkpt lat="47.36388" lon="5.01948">
        <ele>285.20001220703</ele>
        <time>2014-11-11T09:02:40.000Z</time>
      </trkpt>
      <trkpt lat="47.36374" lon="5.0194">
        <ele>285.39999389648</ele>
        <time>2014-11-11T09:02:50.000Z</time>
      </trkpt>
      <trkpt lat="47.36361" lon="5.01932">
        <ele>285.60000610352</ele>
        <time>2014-11-11T09:02:59.000Z</time>
      </trkpt>
      <trkpt lat="47.36343" lon="5.01927">
        <ele>285.60000610352</ele>
        <time>2014-11-11T09:03:11.000Z</time>
      </trkpt>
      <trkpt lat="47.36329" lon="5.01927">
        <ele>285.20001220703</ele>
        <time>2014-11-11T09:03:20.000Z</time>
      </trkpt>
      <trkpt lat="47.3632" lon="5.01927">
        <ele>284.60000610352</ele>
        <time>2014-11-11T09:03:27.000Z</time>
      </trkpt>
      <trkpt lat="47.36308" lon="5.01927">
        <ele>283.79998779297</ele>
        <time>2014-11-11T09:03:35.000Z</time>
      </trkpt>
      <trkpt lat="47.36293" lon="5.01926">
        <ele>283.20001220703</ele>
        <time>2014-11-11T09:03:44.000Z</time>
      </trkpt>
      <trkpt lat="47.36284" lon="5.01926">
        <ele>283</ele>
        <time>2014-11-11T09:03:50.000Z</time>
      </trkpt>
      <trkpt lat="47.36273" lon="5.01928">
        <ele>282.79998779297</ele>
        <time>2014-11-11T09:03:57.000Z</time>
      </trkpt>
      <trkpt lat="47.36263" lon="5.01931">
        <ele>282.39999389648</ele>
        <time>2014-11-11T09:04:04.000Z</time>
      </trkpt>
      <trkpt lat="47.36252" lon="5.01935">
        <ele>282</ele>
        <time>2014-11-11T09:04:12.000Z</time>
      </trkpt>
      <trkpt lat="47.36242" lon="5.0194">
        <ele>281.60000610352</ele>
        <time>2014-11-11T09:04:19.000Z</time>
      </trkpt>
      <trkpt lat="47.36214" lon="5.01956">
        <ele>281.39999389648</ele>
        <time>2014-11-11T09:04:39.000Z</time>
      </trkpt>
      <trkpt lat="47.36199" lon="5.01964">
        <ele>281.39999389648</ele>
        <time>2014-11-11T09:04:49.000Z</time>
      </trkpt>
      <trkpt lat="47.36189" lon="5.01969">
        <ele>281.20001220703</ele>
        <time>2014-11-11T09:04:57.000Z</time>
      </trkpt>
      <trkpt lat="47.36181" lon="5.01974">
        <ele>281</ele>
        <time>2014-11-11T09:05:03.000Z</time>
      </trkpt>
      <trkpt lat="47.36171" lon="5.01979">
        <ele>280.79998779297</ele>
        <time>2014-11-11T09:05:10.000Z</time>
      </trkpt>
      <trkpt lat="47.36159" lon="5.01981">
        <ele>280.79998779297</ele>
        <time>2014-11-11T09:05:17.000Z</time>
      </trkpt>
      <trkpt lat="47.36148" lon="5.0198">
        <ele>281.20001220703</ele>
        <time>2014-11-11T09:05:25.000Z</time>
      </trkpt>
      <trkpt lat="47.36124" lon="5.01968">
        <ele>282.39999389648</ele>
        <time>2014-11-11T09:05:42.000Z</time>
      </trkpt>
      <trkpt lat="47.36113" lon="5.01962">
        <ele>283</ele>
        <time>2014-11-11T09:05:50.000Z</time>
      </trkpt>
      <trkpt lat="47.36102" lon="5.01957">
        <ele>283.60000610352</ele>
        <time>2014-11-11T09:05:58.000Z</time>
      </trkpt>
      <trkpt lat="47.36093" lon="5.01953">
        <ele>284</ele>
        <time>2014-11-11T09:06:05.000Z</time>
      </trkpt>
      <trkpt lat="47.3608" lon="5.0195">
        <ele>284.39999389648</ele>
        <time>2014-11-11T09:06:14.000Z</time>
      </trkpt>
      <trkpt lat="47.36067" lon="5.01952">
        <ele>284.60000610352</ele>
        <time>2014-11-11T09:06:23.000Z</time>
      </trkpt>
      <trkpt lat="47.36056" lon="5.01951">
        <ele>284.79998779297</ele>
        <time>2014-11-11T09:06:31.000Z</time>
      </trkpt>
      <trkpt lat="47.36046" lon="5.01947">
        <ele>285.20001220703</ele>
        <time>2014-11-11T09:06:38.000Z</time>
      </trkpt>
      <trkpt lat="47.36037" lon="5.0194">
        <ele>285.79998779297</ele>
        <time>2014-11-11T09:06:45.000Z</time>
      </trkpt>
      <trkpt lat="47.36028" lon="5.01929">
        <ele>286.39999389648</ele>
        <time>2014-11-11T09:06:53.000Z</time>
      </trkpt>
      <trkpt lat="47.3602" lon="5.01921">
        <ele>286.79998779297</ele>
        <time>2014-11-11T09:07:01.000Z</time>
      </trkpt>
      <trkpt lat="47.36012" lon="5.01918">
        <ele>287.20001220703</ele>
        <time>2014-11-11T09:07:07.000Z</time>
      </trkpt>
      <trkpt lat="47.36" lon="5.01914">
        <ele>287.60000610352</ele>
        <time>2014-11-11T09:07:16.000Z</time>
      </trkpt>
      <trkpt lat="47.35987" lon="5.01912">
        <ele>287.79998779297</ele>
        <time>2014-11-11T09:07:25.000Z</time>
      </trkpt>
      <trkpt lat="47.35977" lon="5.01908">
        <ele>288</ele>
        <time>2014-11-11T09:07:33.000Z</time>
      </trkpt>
      <trkpt lat="47.35964" lon="5.01903">
        <ele>288.39999389648</ele>
        <time>2014-11-11T09:07:42.000Z</time>
      </trkpt>
      <trkpt lat="47.35951" lon="5.01897">
        <ele>288.79998779297</ele>
        <time>2014-11-11T09:07:52.000Z</time>
      </trkpt>
      <trkpt lat="47.35941" lon="5.01892">
        <ele>289</ele>
        <time>2014-11-11T09:08:00.000Z</time>
      </trkpt>
      <trkpt lat="47.35928" lon="5.01888">
        <ele>289.39999389648</ele>
        <time>2014-11-11T09:08:09.000Z</time>
      </trkpt>
      <trkpt lat="47.35907" lon="5.01886">
        <ele>289.79998779297</ele>
        <time>2014-11-11T09:08:26.000Z</time>
      </trkpt>
      <trkpt lat="47.35898" lon="5.01883">
        <ele>290.20001220703</ele>
        <time>2014-11-11T09:08:33.000Z</time>
      </trkpt>
      <trkpt lat="47.35887" lon="5.01878">
        <ele>290.79998779297</ele>
        <time>2014-11-11T09:08:41.000Z</time>
      </trkpt>
      <trkpt lat="47.35877" lon="5.01873">
        <ele>291.60000610352</ele>
        <time>2014-11-11T09:08:49.000Z</time>
      </trkpt>
      <trkpt lat="47.35864" lon="5.01866">
        <ele>292.39999389648</ele>
        <time>2014-11-11T09:08:59.000Z</time>
      </trkpt>
      <trkpt lat="47.35852" lon="5.0186">
        <ele>293.39999389648</ele>
        <time>2014-11-11T09:09:08.000Z</time>
      </trkpt>
      <trkpt lat="47.35843" lon="5.01854">
        <ele>294</ele>
        <time>2014-11-11T09:09:16.000Z</time>
      </trkpt>
      <trkpt lat="47.35832" lon="5.01849">
        <ele>294.79998779297</ele>
        <time>2014-11-11T09:09:24.000Z</time>
      </trkpt>
      <trkpt lat="47.35819" lon="5.01839">
        <ele>295.60000610352</ele>
        <time>2014-11-11T09:09:35.000Z</time>
      </trkpt>
      <trkpt lat="47.3581" lon="5.01831">
        <ele>296.20001220703</ele>
        <time>2014-11-11T09:09:43.000Z</time>
      </trkpt>
      <trkpt lat="47.35803" lon="5.01824">
        <ele>296.79998779297</ele>
        <time>2014-11-11T09:09:50.000Z</time>
      </trkpt>
      <trkpt lat="47.35797" lon="5.01817">
        <ele>297.20001220703</ele>
        <time>2014-11-11T09:09:57.000Z</time>
      </trkpt>
      <trkpt lat="47.35788" lon="5.01806">
        <ele>298</ele>
        <time>2014-11-11T09:10:06.000Z</time>
      </trkpt>
      <trkpt lat="47.35778" lon="5.01795">
        <ele>298.79998779297</ele>
        <time>2014-11-11T09:10:15.000Z</time>
      </trkpt>
      <trkpt lat="47.35765" lon="5.01786">
        <ele>299.39999389648</ele>
        <time>2014-11-11T09:10:25.000Z</time>
      </trkpt>
      <trkpt lat="47.35754" lon="5.01778">
        <ele>299.79998779297</ele>
        <time>2014-11-11T09:10:34.000Z</time>
      </trkpt>
      <trkpt lat="47.35744" lon="5.01766">
        <ele>300.79998779297</ele>
        <time>2014-11-11T09:10:43.000Z</time>
      </trkpt>
      <trkpt lat="47.35736" lon="5.01755">
        <ele>301.60000610352</ele>
        <time>2014-11-11T09:10:51.000Z</time>
      </trkpt>
      <trkpt lat="47.35728" lon="5.01747">
        <ele>302.39999389648</ele>
        <time>2014-11-11T09:10:59.000Z</time>
      </trkpt>
      <trkpt lat="47.35716" lon="5.01735">
        <ele>303.60000610352</ele>
        <time>2014-11-11T09:11:09.000Z</time>
      </trkpt>
      <trkpt lat="47.35708" lon="5.01726">
        <ele>304.39999389648</ele>
        <time>2014-11-11T09:11:17.000Z</time>
      </trkpt>
      <trkpt lat="47.35696" lon="5.01715">
        <ele>305.39999389648</ele>
        <time>2014-11-11T09:11:27.000Z</time>
      </trkpt>
      <trkpt lat="47.35684" lon="5.01704">
        <ele>306.60000610352</ele>
        <time>2014-11-11T09:11:37.000Z</time>
      </trkpt>
      <trkpt lat="47.35676" lon="5.01696">
        <ele>307.20001220703</ele>
        <time>2014-11-11T09:11:44.000Z</time>
      </trkpt>
      <trkpt lat="47.35669" lon="5.01689">
        <ele>307.79998779297</ele>
        <time>2014-11-11T09:11:50.000Z</time>
      </trkpt>
      <trkpt lat="47.35658" lon="5.01679">
        <ele>308.60000610352</ele>
        <time>2014-11-11T09:12:00.000Z</time>
      </trkpt>
      <trkpt lat="47.3565" lon="5.01671">
        <ele>309.20001220703</ele>
        <time>2014-11-11T09:12:07.000Z</time>
      </trkpt>
      <trkpt lat="47.35642" lon="5.01661">
        <ele>309.79998779297</ele>
        <time>2014-11-11T09:12:15.000Z</time>
      </trkpt>
      <trkpt lat="47.3563" lon="5.01647">
        <ele>310.79998779297</ele>
        <time>2014-11-11T09:12:26.000Z</time>
      </trkpt>
      <trkpt lat="47.35622" lon="5.01637">
        <ele>311.39999389648</ele>
        <time>2014-11-11T09:12:34.000Z</time>
      </trkpt>
      <trkpt lat="47.35613" lon="5.0162">
        <ele>312.60000610352</ele>
        <time>2014-11-11T09:12:45.000Z</time>
      </trkpt>
      <trkpt lat="47.35605" lon="5.01605">
        <ele>313.39999389648</ele>
        <time>2014-11-11T09:12:54.000Z</time>
      </trkpt>
      <trkpt lat="47.35598" lon="5.01593">
        <ele>314.20001220703</ele>
        <time>2014-11-11T09:13:02.000Z</time>
      </trkpt>
      <trkpt lat="47.35588" lon="5.0158">
        <ele>315</ele>
        <time>2014-11-11T09:13:12.000Z</time>
      </trkpt>
      <trkpt lat="47.35565" lon="5.01558">
        <ele>316.39999389648</ele>
        <time>2014-11-11T09:13:31.000Z</time>
      </trkpt>
      <trkpt lat="47.35553" lon="5.01551">
        <ele>316.79998779297</ele>
        <time>2014-11-11T09:13:40.000Z</time>
      </trkpt>
      <trkpt lat="47.35542" lon="5.01547">
        <ele>317.20001220703</ele>
        <time>2014-11-11T09:13:48.000Z</time>
      </trkpt>
      <trkpt lat="47.3553" lon="5.01545">
        <ele>317.39999389648</ele>
        <time>2014-11-11T09:13:56.000Z</time>
      </trkpt>
      <trkpt lat="47.35517" lon="5.01539">
        <ele>317.79998779297</ele>
        <time>2014-11-11T09:14:05.000Z</time>
      </trkpt>
      <trkpt lat="47.35506" lon="5.01531">
        <ele>318.39999389648</ele>
        <time>2014-11-11T09:14:14.000Z</time>
      </trkpt>
      <trkpt lat="47.35493" lon="5.01524">
        <ele>318.60000610352</ele>
        <time>2014-11-11T09:14:23.000Z</time>
      </trkpt>
      <trkpt lat="47.35479" lon="5.0152">
        <ele>318.39999389648</ele>
        <time>2014-11-11T09:14:33.000Z</time>
      </trkpt>
      <trkpt lat="47.35467" lon="5.01515">
        <ele>318.20001220703</ele>
        <time>2014-11-11T09:14:41.000Z</time>
      </trkpt>
      <trkpt lat="47.35453" lon="5.01506">
        <ele>318.20001220703</ele>
        <time>2014-11-11T09:14:51.000Z</time>
      </trkpt>
      <trkpt lat="47.35441" lon="5.01497">
        <ele>318.20001220703</ele>
        <time>2014-11-11T09:15:00.000Z</time>
      </trkpt>
      <trkpt lat="47.35431" lon="5.01487">
        <ele>318.20001220703</ele>
        <time>2014-11-11T09:15:08.000Z</time>
      </trkpt>
      <trkpt lat="47.3542" lon="5.01475">
        <ele>318.39999389648</ele>
        <time>2014-11-11T09:15:17.000Z</time>
      </trkpt>
      <trkpt lat="47.35409" lon="5.01461">
        <ele>318.60000610352</ele>
        <time>2014-11-11T09:15:27.000Z</time>
      </trkpt>
      <trkpt lat="47.35398" lon="5.01446">
        <ele>318.60000610352</ele>
        <time>2014-11-11T09:15:37.000Z</time>
      </trkpt>
      <trkpt lat="47.35387" lon="5.01431">
        <ele>318.60000610352</ele>
        <time>2014-11-11T09:15:47.000Z</time>
      </trkpt>
      <trkpt lat="47.35379" lon="5.01421">
        <ele>318.60000610352</ele>
        <time>2014-11-11T09:15:54.000Z</time>
      </trkpt>
      <trkpt lat="47.35366" lon="5.01409">
        <ele>318.39999389648</ele>
        <time>2014-11-11T09:16:04.000Z</time>
      </trkpt>
      <trkpt lat="47.35352" lon="5.01399">
        <ele>318.20001220703</ele>
        <time>2014-11-11T09:16:14.000Z</time>
      </trkpt>
      <trkpt lat="47.35336" lon="5.01389">
        <ele>317.79998779297</ele>
        <time>2014-11-11T09:16:26.000Z</time>
      </trkpt>
      <trkpt lat="47.3532" lon="5.01379">
        <ele>317.60000610352</ele>
        <time>2014-11-11T09:16:37.000Z</time>
      </trkpt>
      <trkpt lat="47.35306" lon="5.01371">
        <ele>317.60000610352</ele>
        <time>2014-11-11T09:16:47.000Z</time>
      </trkpt>
      <trkpt lat="47.35293" lon="5.01361">
        <ele>317.39999389648</ele>
        <time>2014-11-11T09:16:56.000Z</time>
      </trkpt>
      <trkpt lat="47.35282" lon="5.01352">
        <ele>317.39999389648</ele>
        <time>2014-11-11T09:17:04.000Z</time>
      </trkpt>
      <trkpt lat="47.35272" lon="5.01343">
        <ele>317.39999389648</ele>
        <time>2014-11-11T09:17:12.000Z</time>
      </trkpt>
      <trkpt lat="47.35259" lon="5.01332">
        <ele>317.39999389648</ele>
        <time>2014-11-11T09:17:22.000Z</time>
      </trkpt>
      <trkpt lat="47.35246" lon="5.01321">
        <ele>317.20001220703</ele>
        <time>2014-11-11T09:17:32.000Z</time>
      </trkpt>
      <trkpt lat="47.35235" lon="5.01312">
        <ele>317.20001220703</ele>
        <time>2014-11-11T09:17:40.000Z</time>
      </trkpt>
      <trkpt lat="47.35222" lon="5.01301">
        <ele>317.20001220703</ele>
        <time>2014-11-11T09:17:50.000Z</time>
      </trkpt>
      <trkpt lat="47.35213" lon="5.01291">
        <ele>317.20001220703</ele>
        <time>2014-11-11T09:17:58.000Z</time>
      </trkpt>
      <trkpt lat="47.35201" lon="5.01278">
        <ele>316.79998779297</ele>
        <time>2014-11-11T09:18:08.000Z</time>
      </trkpt>
      <trkpt lat="47.35192" lon="5.01266">
        <ele>316.60000610352</ele>
        <time>2014-11-11T09:18:16.000Z</time>
      </trkpt>
      <trkpt lat="47.3518" lon="5.01252">
        <ele>316.39999389648</ele>
        <time>2014-11-11T09:18:26.000Z</time>
      </trkpt>
      <trkpt lat="47.35166" lon="5.01242">
        <ele>316</ele>
        <time>2014-11-11T09:18:36.000Z</time>
      </trkpt>
      <trkpt lat="47.35154" lon="5.01233">
        <ele>315.79998779297</ele>
        <time>2014-11-11T09:18:45.000Z</time>
      </trkpt>
      <trkpt lat="47.35142" lon="5.01225">
        <ele>315.39999389648</ele>
        <time>2014-11-11T09:18:54.000Z</time>
      </trkpt>
      <trkpt lat="47.35138" lon="5.01222">
        <ele>315.39999389648</ele>
        <time>2014-11-11T09:18:57.000Z</time>
      </trkpt>
      <trkpt lat="47.35126" lon="5.01212">
        <ele>315</ele>
        <time>2014-11-11T09:19:06.000Z</time>
      </trkpt>
      <trkpt lat="47.35114" lon="5.012">
        <ele>314.79998779297</ele>
        <time>2014-11-11T09:19:15.000Z</time>
      </trkpt>
      <trkpt lat="47.35104" lon="5.01189">
        <ele>314.60000610352</ele>
        <time>2014-11-11T09:19:23.000Z</time>
      </trkpt>
      <trkpt lat="47.35095" lon="5.01178">
        <ele>314.39999389648</ele>
        <time>2014-11-11T09:19:31.000Z</time>
      </trkpt>
      <trkpt lat="47.35081" lon="5.01165">
        <ele>314</ele>
        <time>2014-11-11T09:19:41.000Z</time>
      </trkpt>
      <trkpt lat="47.35072" lon="5.01159">
        <ele>313.79998779297</ele>
        <time>2014-11-11T09:19:48.000Z</time>
      </trkpt>
      <trkpt lat="47.3506" lon="5.01153">
        <ele>313.79998779297</ele>
        <time>2014-11-11T09:19:56.000Z</time>
      </trkpt>
      <trkpt lat="47.35048" lon="5.0115">
        <ele>313.60000610352</ele>
        <time>2014-11-11T09:20:04.000Z</time>
      </trkpt>
      <trkpt lat="47.35032" lon="5.01146">
        <ele>313.39999389648</ele>
        <time>2014-11-11T09:20:14.000Z</time>
      </trkpt>
      <trkpt lat="47.35019" lon="5.01142">
        <ele>313.20001220703</ele>
        <time>2014-11-11T09:20:23.000Z</time>
      </trkpt>
      <trkpt lat="47.35002" lon="5.01137">
        <ele>313</ele>
        <time>2014-11-11T09:20:34.000Z</time>
      </trkpt>
      <trkpt lat="47.3499" lon="5.01127">
        <ele>313</ele>
        <time>2014-11-11T09:20:43.000Z</time>
      </trkpt>
      <trkpt lat="47.3498" lon="5.01112">
        <ele>313</ele>
        <time>2014-11-11T09:20:53.000Z</time>
      </trkpt>
      <trkpt lat="47.34971" lon="5.01096">
        <ele>312.79998779297</ele>
        <time>2014-11-11T09:21:02.000Z</time>
      </trkpt>
      <trkpt lat="47.34962" lon="5.0108">
        <ele>312.60000610352</ele>
        <time>2014-11-11T09:21:11.000Z</time>
      </trkpt>
      <trkpt lat="47.34943" lon="5.01046">
        <ele>312.20001220703</ele>
        <time>2014-11-11T09:21:31.000Z</time>
      </trkpt>
      <trkpt lat="47.34934" lon="5.01031">
        <ele>311.79998779297</ele>
        <time>2014-11-11T09:21:40.000Z</time>
      </trkpt>
      <trkpt lat="47.34925" lon="5.01014">
        <ele>311.60000610352</ele>
        <time>2014-11-11T09:21:50.000Z</time>
      </trkpt>
      <trkpt lat="47.34916" lon="5.00997">
        <ele>311.39999389648</ele>
        <time>2014-11-11T09:22:00.000Z</time>
      </trkpt>
      <trkpt lat="47.34908" lon="5.0098">
        <ele>310.60000610352</ele>
        <time>2014-11-11T09:22:09.000Z</time>
      </trkpt>
      <trkpt lat="47.34901" lon="5.00967">
        <ele>310</ele>
        <time>2014-11-11T09:22:17.000Z</time>
      </trkpt>
      <trkpt lat="47.3489" lon="5.0095">
        <ele>309</ele>
        <time>2014-11-11T09:22:28.000Z</time>
      </trkpt>
      <trkpt lat="47.34884" lon="5.00952">
        <ele>309</ele>
        <time>2014-11-11T09:22:34.000Z</time>
      </trkpt>
      <trkpt lat="47.34877" lon="5.00964">
        <ele>309.20001220703</ele>
        <time>2014-11-11T09:22:42.000Z</time>
      </trkpt>
      <trkpt lat="47.3487" lon="5.00974">
        <ele>309.60000610352</ele>
        <time>2014-11-11T09:22:50.000Z</time>
      </trkpt>
      <trkpt lat="47.34864" lon="5.00984">
        <ele>309.79998779297</ele>
        <time>2014-11-11T09:22:57.000Z</time>
      </trkpt>
      <trkpt lat="47.34856" lon="5.00996">
        <ele>310.20001220703</ele>
        <time>2014-11-11T09:23:07.000Z</time>
      </trkpt>
      <trkpt lat="47.34853" lon="5.01">
        <ele>310.20001220703</ele>
        <time>2014-11-11T09:23:10.000Z</time>
      </trkpt>
      <trkpt lat="47.34846" lon="5.01014">
        <ele>310.79998779297</ele>
        <time>2014-11-11T09:23:19.000Z</time>
      </trkpt>
      <trkpt lat="47.34839" lon="5.01024">
        <ele>311.20001220703</ele>
        <time>2014-11-11T09:23:27.000Z</time>
      </trkpt>
      <trkpt lat="47.3483" lon="5.01035">
        <ele>311.60000610352</ele>
        <time>2014-11-11T09:23:35.000Z</time>
      </trkpt>
      <trkpt lat="47.3483" lon="5.01036">
        <ele>311.60000610352</ele>
        <time>2014-11-11T09:23:36.000Z</time>
      </trkpt>
      <trkpt lat="47.34828" lon="5.01038">
        <ele>311.79998779297</ele>
        <time>2014-11-11T09:23:45.000Z</time>
      </trkpt>
      <trkpt lat="47.34824" lon="5.01049">
        <ele>311.79998779297</ele>
        <time>2014-11-11T09:23:52.000Z</time>
      </trkpt>
      <trkpt lat="47.34818" lon="5.0106">
        <ele>311.60000610352</ele>
        <time>2014-11-11T09:23:59.000Z</time>
      </trkpt>
      <trkpt lat="47.34811" lon="5.01075">
        <ele>311.20001220703</ele>
        <time>2014-11-11T09:24:09.000Z</time>
      </trkpt>
      <trkpt lat="47.34809" lon="5.01086">
        <ele>311.20001220703</ele>
        <time>2014-11-11T09:24:15.000Z</time>
      </trkpt>
      <trkpt lat="47.34812" lon="5.01088">
        <ele>311.39999389648</ele>
        <time>2014-11-11T09:24:20.000Z</time>
      </trkpt>
      <trkpt lat="47.34812" lon="5.01088">
        <ele>311.39999389648</ele>
        <time>2014-11-11T09:24:28.000Z</time>
      </trkpt>
      <trkpt lat="47.34812" lon="5.01089">
        <ele>311.39999389648</ele>
        <time>2014-11-11T09:24:37.000Z</time>
      </trkpt>
      <trkpt lat="47.34811" lon="5.01088">
        <ele>311.20001220703</ele>
        <time>2014-11-11T09:24:44.000Z</time>
      </trkpt>
      <trkpt lat="47.3481" lon="5.01095">
        <ele>311.20001220703</ele>
        <time>2014-11-11T09:25:14.000Z</time>
      </trkpt>
      <trkpt lat="47.3481" lon="5.01097">
        <ele>311.20001220703</ele>
        <time>2014-11-11T09:25:15.000Z</time>
      </trkpt>
      <trkpt lat="47.34806" lon="5.01111">
        <ele>311.20001220703</ele>
        <time>2014-11-11T09:25:23.000Z</time>
      </trkpt>
      <trkpt lat="47.34806" lon="5.01113">
        <ele>311.20001220703</ele>
        <time>2014-11-11T09:25:24.000Z</time>
      </trkpt>
      <trkpt lat="47.34803" lon="5.01119">
        <ele>311.20001220703</ele>
        <time>2014-11-11T09:25:28.000Z</time>
      </trkpt>
      <trkpt lat="47.348" lon="5.01128">
        <ele>311.20001220703</ele>
        <time>2014-11-11T09:25:33.000Z</time>
      </trkpt>
      <trkpt lat="47.34793" lon="5.01151">
        <ele>310.79998779297</ele>
        <time>2014-11-11T09:25:45.000Z</time>
      </trkpt>
      <trkpt lat="47.34784" lon="5.01166">
        <ele>310.39999389648</ele>
        <time>2014-11-11T09:25:54.000Z</time>
      </trkpt>
      <trkpt lat="47.34778" lon="5.0118">
        <ele>310.60000610352</ele>
        <time>2014-11-11T09:26:02.000Z</time>
      </trkpt>
      <trkpt lat="47.34771" lon="5.01194">
        <ele>310.79998779297</ele>
        <time>2014-11-11T09:26:10.000Z</time>
      </trkpt>
      <trkpt lat="47.3476" lon="5.01216">
        <ele>311</ele>
        <time>2014-11-11T09:26:22.000Z</time>
      </trkpt>
      <trkpt lat="47.3475" lon="5.01236">
        <ele>310.60000610352</ele>
        <time>2014-11-11T09:26:33.000Z</time>
      </trkpt>
      <trkpt lat="47.34741" lon="5.01251">
        <ele>310.39999389648</ele>
        <time>2014-11-11T09:26:42.000Z</time>
      </trkpt>
      <trkpt lat="47.34735" lon="5.01265">
        <ele>310.39999389648</ele>
        <time>2014-11-11T09:26:50.000Z</time>
      </trkpt>
      <trkpt lat="47.34729" lon="5.01274">
        <ele>310.20001220703</ele>
        <time>2014-11-11T09:26:56.000Z</time>
      </trkpt>
      <trkpt lat="47.34726" lon="5.01281">
        <ele>310.60000610352</ele>
        <time>2014-11-11T09:27:00.000Z</time>
      </trkpt>
      <trkpt lat="47.3472" lon="5.01292">
        <ele>311.39999389648</ele>
        <time>2014-11-11T09:27:07.000Z</time>
      </trkpt>
      <trkpt lat="47.34709" lon="5.01308">
        <ele>311.20001220703</ele>
        <time>2014-11-11T09:27:17.000Z</time>
      </trkpt>
      <trkpt lat="47.34696" lon="5.01327">
        <ele>311.39999389648</ele>
        <time>2014-11-11T09:27:29.000Z</time>
      </trkpt>
      <trkpt lat="47.34685" lon="5.01344">
        <ele>312.60000610352</ele>
        <time>2014-11-11T09:27:40.000Z</time>
      </trkpt>
      <trkpt lat="47.34673" lon="5.01362">
        <ele>314</ele>
        <time>2014-11-11T09:27:51.000Z</time>
      </trkpt>
      <trkpt lat="47.34664" lon="5.01376">
        <ele>315</ele>
        <time>2014-11-11T09:28:00.000Z</time>
      </trkpt>
      <trkpt lat="47.34657" lon="5.01386">
        <ele>316.20001220703</ele>
        <time>2014-11-11T09:28:08.000Z</time>
      </trkpt>
      <trkpt lat="47.34649" lon="5.01395">
        <ele>317.20001220703</ele>
        <time>2014-11-11T09:28:15.000Z</time>
      </trkpt>
      <trkpt lat="47.34643" lon="5.01407">
        <ele>318.60000610352</ele>
        <time>2014-11-11T09:28:22.000Z</time>
      </trkpt>
      <trkpt lat="47.34639" lon="5.01417">
        <ele>319.60000610352</ele>
        <time>2014-11-11T09:28:27.000Z</time>
      </trkpt>
      <trkpt lat="47.34632" lon="5.01425">
        <ele>320.60000610352</ele>
        <time>2014-11-11T09:28:33.000Z</time>
      </trkpt>
      <trkpt lat="47.34625" lon="5.01434">
        <ele>322.20001220703</ele>
        <time>2014-11-11T09:28:40.000Z</time>
      </trkpt>
      <trkpt lat="47.34624" lon="5.01435">
        <ele>322.60000610352</ele>
        <time>2014-11-11T09:28:42.000Z</time>
      </trkpt>
      <trkpt lat="47.3462" lon="5.01441">
        <ele>323.60000610352</ele>
        <time>2014-11-11T09:28:48.000Z</time>
      </trkpt>
      <trkpt lat="47.34619" lon="5.01442">
        <ele>323.79998779297</ele>
        <time>2014-11-11T09:28:49.000Z</time>
      </trkpt>
      <trkpt lat="47.34617" lon="5.01445">
        <ele>324.39999389648</ele>
        <time>2014-11-11T09:28:52.000Z</time>
      </trkpt>
      <trkpt lat="47.34612" lon="5.0145">
        <ele>325.60000610352</ele>
        <time>2014-11-11T09:28:57.000Z</time>
      </trkpt>
      <trkpt lat="47.34604" lon="5.01455">
        <ele>326.79998779297</ele>
        <time>2014-11-11T09:29:04.000Z</time>
      </trkpt>
      <trkpt lat="47.34604" lon="5.01456">
        <ele>327</ele>
        <time>2014-11-11T09:29:05.000Z</time>
      </trkpt>
      <trkpt lat="47.34602" lon="5.01463">
        <ele>327.79998779297</ele>
        <time>2014-11-11T09:29:10.000Z</time>
      </trkpt>
      <trkpt lat="47.34603" lon="5.01471">
        <ele>328.60000610352</ele>
        <time>2014-11-11T09:29:15.000Z</time>
      </trkpt>
      <trkpt lat="47.34603" lon="5.01471">
        <ele>328.60000610352</ele>
        <time>2014-11-11T09:29:16.000Z</time>
      </trkpt>
      <trkpt lat="47.34606" lon="5.0148">
        <ele>329.20001220703</ele>
        <time>2014-11-11T09:29:22.000Z</time>
      </trkpt>
      <trkpt lat="47.34609" lon="5.01492">
        <ele>330.39999389648</ele>
        <time>2014-11-11T09:29:34.000Z</time>
      </trkpt>
      <trkpt lat="47.3461" lon="5.01495">
        <ele>330.60000610352</ele>
        <time>2014-11-11T09:29:36.000Z</time>
      </trkpt>
      <trkpt lat="47.34613" lon="5.015">
        <ele>331</ele>
        <time>2014-11-11T09:29:40.000Z</time>
      </trkpt>
      <trkpt lat="47.34616" lon="5.01511">
        <ele>332.20001220703</ele>
        <time>2014-11-11T09:29:46.000Z</time>
      </trkpt>
      <trkpt lat="47.34617" lon="5.01513">
        <ele>332.39999389648</ele>
        <time>2014-11-11T09:29:47.000Z</time>
      </trkpt>
      <trkpt lat="47.34618" lon="5.01516">
        <ele>332.60000610352</ele>
        <time>2014-11-11T09:29:49.000Z</time>
      </trkpt>
      <trkpt lat="47.34618" lon="5.01519">
        <ele>332.79998779297</ele>
        <time>2014-11-11T09:29:51.000Z</time>
      </trkpt>
      <trkpt lat="47.34622" lon="5.01526">
        <ele>333.60000610352</ele>
        <time>2014-11-11T09:29:56.000Z</time>
      </trkpt>
      <trkpt lat="47.34623" lon="5.0153">
        <ele>333.79998779297</ele>
        <time>2014-11-11T09:29:58.000Z</time>
      </trkpt>
      <trkpt lat="47.34623" lon="5.01532">
        <ele>334.20001220703</ele>
        <time>2014-11-11T09:29:59.000Z</time>
      </trkpt>
      <trkpt lat="47.34626" lon="5.0154">
        <ele>334.79998779297</ele>
        <time>2014-11-11T09:30:03.000Z</time>
      </trkpt>
      <trkpt lat="47.34628" lon="5.01548">
        <ele>335</ele>
        <time>2014-11-11T09:30:07.000Z</time>
      </trkpt>
      <trkpt lat="47.34632" lon="5.01556">
        <ele>334.60000610352</ele>
        <time>2014-11-11T09:30:12.000Z</time>
      </trkpt>
      <trkpt lat="47.34633" lon="5.01563">
        <ele>334.60000610352</ele>
        <time>2014-11-11T09:30:17.000Z</time>
      </trkpt>
      <trkpt lat="47.34631" lon="5.01564">
        <ele>334.79998779297</ele>
        <time>2014-11-11T09:30:20.000Z</time>
      </trkpt>
      <trkpt lat="47.3463" lon="5.01565">
        <ele>335</ele>
        <time>2014-11-11T09:30:25.000Z</time>
      </trkpt>
      <trkpt lat="47.34628" lon="5.0157">
        <ele>335.20001220703</ele>
        <time>2014-11-11T09:30:30.000Z</time>
      </trkpt>
      <trkpt lat="47.34628" lon="5.01572">
        <ele>335.39999389648</ele>
        <time>2014-11-11T09:30:31.000Z</time>
      </trkpt>
      <trkpt lat="47.34628" lon="5.01574">
        <ele>335.39999389648</ele>
        <time>2014-11-11T09:30:38.000Z</time>
      </trkpt>
      <trkpt lat="47.34627" lon="5.01578">
        <ele>335.39999389648</ele>
        <time>2014-11-11T09:30:49.000Z</time>
      </trkpt>
      <trkpt lat="47.34627" lon="5.01583">
        <ele>335.60000610352</ele>
        <time>2014-11-11T09:30:55.000Z</time>
      </trkpt>
      <trkpt lat="47.3462" lon="5.01593">
        <ele>335.39999389648</ele>
        <time>2014-11-11T09:31:03.000Z</time>
      </trkpt>
      <trkpt lat="47.34614" lon="5.01602">
        <ele>334.79998779297</ele>
        <time>2014-11-11T09:31:10.000Z</time>
      </trkpt>
      <trkpt lat="47.34608" lon="5.01608">
        <ele>334.60000610352</ele>
        <time>2014-11-11T09:31:15.000Z</time>
      </trkpt>
      <trkpt lat="47.34585" lon="5.01618">
        <ele>334.39999389648</ele>
        <time>2014-11-11T09:31:33.000Z</time>
      </trkpt>
      <trkpt lat="47.34584" lon="5.0162">
        <ele>334.20001220703</ele>
        <time>2014-11-11T09:31:38.000Z</time>
      </trkpt>
      <trkpt lat="47.3458" lon="5.01623">
        <ele>334</ele>
        <time>2014-11-11T09:31:44.000Z</time>
      </trkpt>
      <trkpt lat="47.34571" lon="5.01628">
        <ele>332.39999389648</ele>
        <time>2014-11-11T09:31:52.000Z</time>
      </trkpt>
      <trkpt lat="47.34569" lon="5.01629">
        <ele>332</ele>
        <time>2014-11-11T09:31:54.000Z</time>
      </trkpt>
      <trkpt lat="47.34563" lon="5.0164">
        <ele>330.20001220703</ele>
        <time>2014-11-11T09:32:03.000Z</time>
      </trkpt>
      <trkpt lat="47.34563" lon="5.01641">
        <ele>330</ele>
        <time>2014-11-11T09:32:04.000Z</time>
      </trkpt>
      <trkpt lat="47.34562" lon="5.01647">
        <ele>329.20001220703</ele>
        <time>2014-11-11T09:32:09.000Z</time>
      </trkpt>
      <trkpt lat="47.34561" lon="5.01648">
        <ele>329</ele>
        <time>2014-11-11T09:32:13.000Z</time>
      </trkpt>
    </trkseg>
  </trk>
</gpx>